<?xml version="1.0" encoding="UTF-8" standalone="no" ?>
<gpx xmlns="http://www.topografix.com/GPX/1/1" xmlns:xsi="http://www.w3.org/2001/XMLSchema-instance" xsi:schemaLocation="http://www.topografix.com/GPX/1/1 http://www.topografix.com/GPX/1/1/gpx.xsd" version="1.1" creator="VisuGPX - https://www.visugpx.com">
  <metadata>
    <name>Pas des Voûtes et Pas de l'Allier</name>
    <desc><![CDATA[Pas des Voutes et Pas de l'Allier en boucle au départ du col de Mézelier.

Circuit classique avec quelques variantes :
- En haut du Pas des Voûtes, plutôt que de prendre la piste vers la droite la prendre vers la gauche une centaine de mètres pour prendre ensuite à droite une sente qui passe en balcon au pied des falaises et amène à une source et à un site de fouilles archéologiques. Elle se poursuit après les fouilles pour déboucher sur la piste dans un virage. Très jolie sentier avec de belles échappées sur les gorges de la Bourne.
- Après le point de vue sur les gorges de la Bourne on peut quitter la piste pour prendre des sentes plus ou moins bien tracées dans les bois en longeant la falaise. On a ainsi la vue sur les gorges et la surprise de croiser une sculpture de [url=https://www.aussibal.com/]l'artiste Jérôme Aussibal[/url].]]></desc>
  </metadata>
  <trk>
    <name><![CDATA[2020-07-05 15:04:36]]></name>
    <trkseg>
      <trkpt lat="45.05314" lon="5.36763">
        <ele>537.51</ele>
        <time>2020-07-05T07:11:03Z</time>
      </trkpt>
      <trkpt lat="45.05316" lon="5.36766">
        <ele>537.51</ele>
        <time>2020-07-05T07:11:27Z</time>
      </trkpt>
      <trkpt lat="45.05318" lon="5.3677">
        <ele>537.51</ele>
        <time>2020-07-05T07:11:57Z</time>
      </trkpt>
      <trkpt lat="45.05316" lon="5.36777">
        <ele>537.51</ele>
        <time>2020-07-05T07:12:06Z</time>
      </trkpt>
      <trkpt lat="45.05317" lon="5.36782">
        <ele>537.99</ele>
        <time>2020-07-05T07:12:11Z</time>
      </trkpt>
      <trkpt lat="45.05323" lon="5.36795">
        <ele>538.96</ele>
        <time>2020-07-05T07:12:25Z</time>
      </trkpt>
      <trkpt lat="45.05319" lon="5.36813">
        <ele>539.92</ele>
        <time>2020-07-05T07:12:41Z</time>
      </trkpt>
      <trkpt lat="45.05317" lon="5.36818">
        <ele>540.4</ele>
        <time>2020-07-05T07:12:45Z</time>
      </trkpt>
      <trkpt lat="45.05307" lon="5.36835">
        <ele>541.84</ele>
        <time>2020-07-05T07:13:01Z</time>
      </trkpt>
      <trkpt lat="45.05294" lon="5.3685">
        <ele>543.76</ele>
        <time>2020-07-05T07:13:18Z</time>
      </trkpt>
      <trkpt lat="45.05284" lon="5.36865">
        <ele>545.69</ele>
        <time>2020-07-05T07:13:33Z</time>
      </trkpt>
      <trkpt lat="45.05278" lon="5.36876">
        <ele>546.17</ele>
        <time>2020-07-05T07:13:44Z</time>
      </trkpt>
      <trkpt lat="45.05266" lon="5.36899">
        <ele>548.09</ele>
        <time>2020-07-05T07:14:03Z</time>
      </trkpt>
      <trkpt lat="45.05258" lon="5.36925">
        <ele>549.53</ele>
        <time>2020-07-05T07:14:21Z</time>
      </trkpt>
      <trkpt lat="45.05255" lon="5.36946">
        <ele>550.49</ele>
        <time>2020-07-05T07:14:34Z</time>
      </trkpt>
      <trkpt lat="45.05255" lon="5.36968">
        <ele>551.45</ele>
        <time>2020-07-05T07:14:49Z</time>
      </trkpt>
      <trkpt lat="45.05257" lon="5.36986">
        <ele>552.9</ele>
        <time>2020-07-05T07:15:04Z</time>
      </trkpt>
      <trkpt lat="45.05261" lon="5.37009">
        <ele>553.38</ele>
        <time>2020-07-05T07:15:19Z</time>
      </trkpt>
      <trkpt lat="45.05265" lon="5.37029">
        <ele>554.34</ele>
        <time>2020-07-05T07:15:33Z</time>
      </trkpt>
      <trkpt lat="45.05267" lon="5.37046">
        <ele>555.3</ele>
        <time>2020-07-05T07:15:45Z</time>
      </trkpt>
      <trkpt lat="45.05268" lon="5.3707">
        <ele>556.74</ele>
        <time>2020-07-05T07:16:00Z</time>
      </trkpt>
      <trkpt lat="45.0527" lon="5.3709">
        <ele>558.18</ele>
        <time>2020-07-05T07:16:13Z</time>
      </trkpt>
      <trkpt lat="45.05268" lon="5.37112">
        <ele>560.11</ele>
        <time>2020-07-05T07:16:29Z</time>
      </trkpt>
      <trkpt lat="45.05269" lon="5.37119">
        <ele>560.11</ele>
        <time>2020-07-05T07:16:40Z</time>
      </trkpt>
      <trkpt lat="45.05276" lon="5.37126">
        <ele>562.99</ele>
        <time>2020-07-05T07:16:55Z</time>
      </trkpt>
      <trkpt lat="45.05281" lon="5.37132">
        <ele>565.39</ele>
        <time>2020-07-05T07:17:08Z</time>
      </trkpt>
      <trkpt lat="45.05284" lon="5.37144">
        <ele>568.76</ele>
        <time>2020-07-05T07:17:24Z</time>
      </trkpt>
      <trkpt lat="45.05278" lon="5.37158">
        <ele>568.76</ele>
        <time>2020-07-05T07:17:38Z</time>
      </trkpt>
      <trkpt lat="45.05272" lon="5.37175">
        <ele>570.2</ele>
        <time>2020-07-05T07:17:53Z</time>
      </trkpt>
      <trkpt lat="45.05268" lon="5.37184">
        <ele>571.16</ele>
        <time>2020-07-05T07:18:06Z</time>
      </trkpt>
      <trkpt lat="45.05261" lon="5.37199">
        <ele>572.6</ele>
        <time>2020-07-05T07:18:20Z</time>
      </trkpt>
      <trkpt lat="45.05249" lon="5.37219">
        <ele>574.04</ele>
        <time>2020-07-05T07:18:38Z</time>
      </trkpt>
      <trkpt lat="45.05241" lon="5.37236">
        <ele>575.49</ele>
        <time>2020-07-05T07:18:53Z</time>
      </trkpt>
      <trkpt lat="45.05239" lon="5.37241">
        <ele>576.45</ele>
        <time>2020-07-05T07:18:57Z</time>
      </trkpt>
      <trkpt lat="45.05238" lon="5.37243">
        <ele>576.45</ele>
        <time>2020-07-05T07:18:59Z</time>
      </trkpt>
      <trkpt lat="45.05231" lon="5.37262">
        <ele>577.89</ele>
        <time>2020-07-05T07:19:14Z</time>
      </trkpt>
      <trkpt lat="45.05225" lon="5.37281">
        <ele>579.81</ele>
        <time>2020-07-05T07:19:29Z</time>
      </trkpt>
      <trkpt lat="45.0522" lon="5.373">
        <ele>580.29</ele>
        <time>2020-07-05T07:19:43Z</time>
      </trkpt>
      <trkpt lat="45.05219" lon="5.37308">
        <ele>580.29</ele>
        <time>2020-07-05T07:19:57Z</time>
      </trkpt>
      <trkpt lat="45.05217" lon="5.37313">
        <ele>580.77</ele>
        <time>2020-07-05T07:20:18Z</time>
      </trkpt>
      <trkpt lat="45.05213" lon="5.37337">
        <ele>581.25</ele>
        <time>2020-07-05T07:20:35Z</time>
      </trkpt>
      <trkpt lat="45.05209" lon="5.37358">
        <ele>581.73</ele>
        <time>2020-07-05T07:20:50Z</time>
      </trkpt>
      <trkpt lat="45.05209" lon="5.37366">
        <ele>582.22</ele>
        <time>2020-07-05T07:20:56Z</time>
      </trkpt>
      <trkpt lat="45.05204" lon="5.37386">
        <ele>583.66</ele>
        <time>2020-07-05T07:21:10Z</time>
      </trkpt>
      <trkpt lat="45.05198" lon="5.37403">
        <ele>584.62</ele>
        <time>2020-07-05T07:21:24Z</time>
      </trkpt>
      <trkpt lat="45.05195" lon="5.3741">
        <ele>584.62</ele>
        <time>2020-07-05T07:21:30Z</time>
      </trkpt>
      <trkpt lat="45.05187" lon="5.37429">
        <ele>585.58</ele>
        <time>2020-07-05T07:21:45Z</time>
      </trkpt>
      <trkpt lat="45.05179" lon="5.37442">
        <ele>586.54</ele>
        <time>2020-07-05T07:21:59Z</time>
      </trkpt>
      <trkpt lat="45.05167" lon="5.37455">
        <ele>588.46</ele>
        <time>2020-07-05T07:22:14Z</time>
      </trkpt>
      <trkpt lat="45.05152" lon="5.37467">
        <ele>589.91</ele>
        <time>2020-07-05T07:22:30Z</time>
      </trkpt>
      <trkpt lat="45.05145" lon="5.3747">
        <ele>590.87</ele>
        <time>2020-07-05T07:22:38Z</time>
      </trkpt>
      <trkpt lat="45.05132" lon="5.37477">
        <ele>591.83</ele>
        <time>2020-07-05T07:22:51Z</time>
      </trkpt>
      <trkpt lat="45.05126" lon="5.37487">
        <ele>593.27</ele>
        <time>2020-07-05T07:23:04Z</time>
      </trkpt>
      <trkpt lat="45.05122" lon="5.3749">
        <ele>594.23</ele>
        <time>2020-07-05T07:23:09Z</time>
      </trkpt>
      <trkpt lat="45.05111" lon="5.3749">
        <ele>594.71</ele>
        <time>2020-07-05T07:23:18Z</time>
      </trkpt>
      <trkpt lat="45.05095" lon="5.37487">
        <ele>594.71</ele>
        <time>2020-07-05T07:23:33Z</time>
      </trkpt>
      <trkpt lat="45.05077" lon="5.37486">
        <ele>594.71</ele>
        <time>2020-07-05T07:23:48Z</time>
      </trkpt>
      <trkpt lat="45.05067" lon="5.37482">
        <ele>595.67</ele>
        <time>2020-07-05T07:24:01Z</time>
      </trkpt>
      <trkpt lat="45.05055" lon="5.3747">
        <ele>596.64</ele>
        <time>2020-07-05T07:24:15Z</time>
      </trkpt>
      <trkpt lat="45.05047" lon="5.37459">
        <ele>597.6</ele>
        <time>2020-07-05T07:24:22Z</time>
      </trkpt>
      <trkpt lat="45.05031" lon="5.37448">
        <ele>599.04</ele>
        <time>2020-07-05T07:24:38Z</time>
      </trkpt>
      <trkpt lat="45.05022" lon="5.37449">
        <ele>599.52</ele>
        <time>2020-07-05T07:24:48Z</time>
      </trkpt>
      <trkpt lat="45.05008" lon="5.37459">
        <ele>601.44</ele>
        <time>2020-07-05T07:25:04Z</time>
      </trkpt>
      <trkpt lat="45.04995" lon="5.37466">
        <ele>603.36</ele>
        <time>2020-07-05T07:27:40Z</time>
      </trkpt>
      <trkpt lat="45.04985" lon="5.37479">
        <ele>604.33</ele>
        <time>2020-07-05T07:27:56Z</time>
      </trkpt>
      <trkpt lat="45.04979" lon="5.37493">
        <ele>606.25</ele>
        <time>2020-07-05T07:28:11Z</time>
      </trkpt>
      <trkpt lat="45.04971" lon="5.37506">
        <ele>607.69</ele>
        <time>2020-07-05T07:28:25Z</time>
      </trkpt>
      <trkpt lat="45.04961" lon="5.37519">
        <ele>609.13</ele>
        <time>2020-07-05T07:28:38Z</time>
      </trkpt>
      <trkpt lat="45.0495" lon="5.37529">
        <ele>610.57</ele>
        <time>2020-07-05T07:28:54Z</time>
      </trkpt>
      <trkpt lat="45.04934" lon="5.37536">
        <ele>612.98</ele>
        <time>2020-07-05T07:29:10Z</time>
      </trkpt>
      <trkpt lat="45.04922" lon="5.37544">
        <ele>614.42</ele>
        <time>2020-07-05T07:29:24Z</time>
      </trkpt>
      <trkpt lat="45.04913" lon="5.37558">
        <ele>616.34</ele>
        <time>2020-07-05T07:29:38Z</time>
      </trkpt>
      <trkpt lat="45.04908" lon="5.37574">
        <ele>617.78</ele>
        <time>2020-07-05T07:29:52Z</time>
      </trkpt>
      <trkpt lat="45.04901" lon="5.37586">
        <ele>619.23</ele>
        <time>2020-07-05T07:30:06Z</time>
      </trkpt>
      <trkpt lat="45.04895" lon="5.376">
        <ele>620.67</ele>
        <time>2020-07-05T07:30:20Z</time>
      </trkpt>
      <trkpt lat="45.04892" lon="5.37615">
        <ele>622.11</ele>
        <time>2020-07-05T07:30:35Z</time>
      </trkpt>
      <trkpt lat="45.04889" lon="5.37637">
        <ele>624.51</ele>
        <time>2020-07-05T07:30:53Z</time>
      </trkpt>
      <trkpt lat="45.04886" lon="5.37653">
        <ele>626.44</ele>
        <time>2020-07-05T07:31:08Z</time>
      </trkpt>
      <trkpt lat="45.04883" lon="5.37674">
        <ele>627.88</ele>
        <time>2020-07-05T07:31:21Z</time>
      </trkpt>
      <trkpt lat="45.04881" lon="5.37691">
        <ele>628.84</ele>
        <time>2020-07-05T07:31:36Z</time>
      </trkpt>
      <trkpt lat="45.0488" lon="5.37709">
        <ele>631.24</ele>
        <time>2020-07-05T07:31:51Z</time>
      </trkpt>
      <trkpt lat="45.04879" lon="5.37729">
        <ele>632.2</ele>
        <time>2020-07-05T07:32:06Z</time>
      </trkpt>
      <trkpt lat="45.04882" lon="5.37742">
        <ele>633.17</ele>
        <time>2020-07-05T07:32:16Z</time>
      </trkpt>
      <trkpt lat="45.04881" lon="5.37762">
        <ele>635.57</ele>
        <time>2020-07-05T07:32:31Z</time>
      </trkpt>
      <trkpt lat="45.04873" lon="5.37777">
        <ele>636.53</ele>
        <time>2020-07-05T07:32:45Z</time>
      </trkpt>
      <trkpt lat="45.04867" lon="5.37793">
        <ele>638.45</ele>
        <time>2020-07-05T07:33:00Z</time>
      </trkpt>
      <trkpt lat="45.0486" lon="5.37811">
        <ele>640.86</ele>
        <time>2020-07-05T07:33:16Z</time>
      </trkpt>
      <trkpt lat="45.04854" lon="5.37825">
        <ele>643.74</ele>
        <time>2020-07-05T07:33:32Z</time>
      </trkpt>
      <trkpt lat="45.04849" lon="5.37837">
        <ele>645.18</ele>
        <time>2020-07-05T07:33:46Z</time>
      </trkpt>
      <trkpt lat="45.04843" lon="5.37853">
        <ele>647.59</ele>
        <time>2020-07-05T07:34:02Z</time>
      </trkpt>
      <trkpt lat="45.04837" lon="5.37867">
        <ele>649.03</ele>
        <time>2020-07-05T07:34:16Z</time>
      </trkpt>
      <trkpt lat="45.04832" lon="5.3788">
        <ele>650.95</ele>
        <time>2020-07-05T07:34:31Z</time>
      </trkpt>
      <trkpt lat="45.04825" lon="5.37893">
        <ele>653.83</ele>
        <time>2020-07-05T07:34:46Z</time>
      </trkpt>
      <trkpt lat="45.04817" lon="5.37907">
        <ele>655.76</ele>
        <time>2020-07-05T07:35:03Z</time>
      </trkpt>
      <trkpt lat="45.0481" lon="5.37922">
        <ele>658.64</ele>
        <time>2020-07-05T07:35:19Z</time>
      </trkpt>
      <trkpt lat="45.04801" lon="5.37935">
        <ele>661.52</ele>
        <time>2020-07-05T07:35:36Z</time>
      </trkpt>
      <trkpt lat="45.04796" lon="5.37946">
        <ele>663.93</ele>
        <time>2020-07-05T07:35:50Z</time>
      </trkpt>
      <trkpt lat="45.0479" lon="5.3796">
        <ele>666.33</ele>
        <time>2020-07-05T07:36:06Z</time>
      </trkpt>
      <trkpt lat="45.04784" lon="5.37975">
        <ele>668.73</ele>
        <time>2020-07-05T07:36:22Z</time>
      </trkpt>
      <trkpt lat="45.04777" lon="5.37988">
        <ele>671.14</ele>
        <time>2020-07-05T07:36:40Z</time>
      </trkpt>
      <trkpt lat="45.04769" lon="5.38">
        <ele>674.02</ele>
        <time>2020-07-05T07:36:56Z</time>
      </trkpt>
      <trkpt lat="45.04763" lon="5.38015">
        <ele>676.42</ele>
        <time>2020-07-05T07:37:13Z</time>
      </trkpt>
      <trkpt lat="45.04758" lon="5.38025">
        <ele>677.87</ele>
        <time>2020-07-05T07:37:28Z</time>
      </trkpt>
      <trkpt lat="45.04753" lon="5.38037">
        <ele>680.75</ele>
        <time>2020-07-05T07:37:44Z</time>
      </trkpt>
      <trkpt lat="45.04747" lon="5.38049">
        <ele>683.63</ele>
        <time>2020-07-05T07:38:01Z</time>
      </trkpt>
      <trkpt lat="45.04742" lon="5.38062">
        <ele>686.52</ele>
        <time>2020-07-05T07:38:17Z</time>
      </trkpt>
      <trkpt lat="45.04737" lon="5.38074">
        <ele>688.92</ele>
        <time>2020-07-05T07:38:32Z</time>
      </trkpt>
      <trkpt lat="45.0473" lon="5.38086">
        <ele>691.81</ele>
        <time>2020-07-05T07:38:48Z</time>
      </trkpt>
      <trkpt lat="45.04728" lon="5.38099">
        <ele>693.73</ele>
        <time>2020-07-05T07:39:03Z</time>
      </trkpt>
      <trkpt lat="45.04723" lon="5.38112">
        <ele>696.13</ele>
        <time>2020-07-05T07:39:19Z</time>
      </trkpt>
      <trkpt lat="45.04721" lon="5.38126">
        <ele>699.02</ele>
        <time>2020-07-05T07:39:36Z</time>
      </trkpt>
      <trkpt lat="45.04717" lon="5.38139">
        <ele>701.9</ele>
        <time>2020-07-05T07:39:53Z</time>
      </trkpt>
      <trkpt lat="45.04715" lon="5.38148">
        <ele>704.78</ele>
        <time>2020-07-05T07:40:06Z</time>
      </trkpt>
      <trkpt lat="45.0471" lon="5.38157">
        <ele>707.19</ele>
        <time>2020-07-05T07:40:20Z</time>
      </trkpt>
      <trkpt lat="45.04706" lon="5.38169">
        <ele>709.59</ele>
        <time>2020-07-05T07:40:34Z</time>
      </trkpt>
      <trkpt lat="45.04703" lon="5.38182">
        <ele>711.99</ele>
        <time>2020-07-05T07:40:49Z</time>
      </trkpt>
      <trkpt lat="45.047" lon="5.38196">
        <ele>714.4</ele>
        <time>2020-07-05T07:41:05Z</time>
      </trkpt>
      <trkpt lat="45.04695" lon="5.3821">
        <ele>717.28</ele>
        <time>2020-07-05T07:41:21Z</time>
      </trkpt>
      <trkpt lat="45.0469" lon="5.38225">
        <ele>718.72</ele>
        <time>2020-07-05T07:41:38Z</time>
      </trkpt>
      <trkpt lat="45.04681" lon="5.38239">
        <ele>721.13</ele>
        <time>2020-07-05T07:41:55Z</time>
      </trkpt>
      <trkpt lat="45.04674" lon="5.38247">
        <ele>722.57</ele>
        <time>2020-07-05T07:42:08Z</time>
      </trkpt>
      <trkpt lat="45.04666" lon="5.38259">
        <ele>724.01</ele>
        <time>2020-07-05T07:42:23Z</time>
      </trkpt>
      <trkpt lat="45.04653" lon="5.38268">
        <ele>725.93</ele>
        <time>2020-07-05T07:42:38Z</time>
      </trkpt>
      <trkpt lat="45.0464" lon="5.38273">
        <ele>728.34</ele>
        <time>2020-07-05T07:42:55Z</time>
      </trkpt>
      <trkpt lat="45.04628" lon="5.3828">
        <ele>731.22</ele>
        <time>2020-07-05T07:43:12Z</time>
      </trkpt>
      <trkpt lat="45.0462" lon="5.38288">
        <ele>733.14</ele>
        <time>2020-07-05T07:43:27Z</time>
      </trkpt>
      <trkpt lat="45.04615" lon="5.38301">
        <ele>734.58</ele>
        <time>2020-07-05T07:43:41Z</time>
      </trkpt>
      <trkpt lat="45.04612" lon="5.38317">
        <ele>735.07</ele>
        <time>2020-07-05T07:43:55Z</time>
      </trkpt>
      <trkpt lat="45.04605" lon="5.38334">
        <ele>737.47</ele>
        <time>2020-07-05T07:44:12Z</time>
      </trkpt>
      <trkpt lat="45.046" lon="5.38347">
        <ele>738.43</ele>
        <time>2020-07-05T07:44:26Z</time>
      </trkpt>
      <trkpt lat="45.04594" lon="5.38362">
        <ele>740.83</ele>
        <time>2020-07-05T07:44:41Z</time>
      </trkpt>
      <trkpt lat="45.0459" lon="5.38376">
        <ele>742.76</ele>
        <time>2020-07-05T07:44:56Z</time>
      </trkpt>
      <trkpt lat="45.04586" lon="5.38392">
        <ele>745.16</ele>
        <time>2020-07-05T07:45:11Z</time>
      </trkpt>
      <trkpt lat="45.04584" lon="5.38406">
        <ele>746.6</ele>
        <time>2020-07-05T07:45:26Z</time>
      </trkpt>
      <trkpt lat="45.04581" lon="5.38421">
        <ele>748.52</ele>
        <time>2020-07-05T07:45:41Z</time>
      </trkpt>
      <trkpt lat="45.04577" lon="5.38436">
        <ele>750.45</ele>
        <time>2020-07-05T07:45:55Z</time>
      </trkpt>
      <trkpt lat="45.04573" lon="5.38457">
        <ele>752.37</ele>
        <time>2020-07-05T07:46:11Z</time>
      </trkpt>
      <trkpt lat="45.04569" lon="5.38472">
        <ele>754.77</ele>
        <time>2020-07-05T07:46:26Z</time>
      </trkpt>
      <trkpt lat="45.04559" lon="5.38483">
        <ele>757.18</ele>
        <time>2020-07-05T07:46:43Z</time>
      </trkpt>
      <trkpt lat="45.04551" lon="5.38493">
        <ele>758.62</ele>
        <time>2020-07-05T07:46:57Z</time>
      </trkpt>
      <trkpt lat="45.04546" lon="5.38506">
        <ele>760.54</ele>
        <time>2020-07-05T07:47:13Z</time>
      </trkpt>
      <trkpt lat="45.04536" lon="5.38521">
        <ele>762.94</ele>
        <time>2020-07-05T07:47:32Z</time>
      </trkpt>
      <trkpt lat="45.04527" lon="5.38531">
        <ele>765.35</ele>
        <time>2020-07-05T07:47:49Z</time>
      </trkpt>
      <trkpt lat="45.04517" lon="5.38542">
        <ele>767.27</ele>
        <time>2020-07-05T07:48:04Z</time>
      </trkpt>
      <trkpt lat="45.04508" lon="5.38551">
        <ele>769.19</ele>
        <time>2020-07-05T07:48:20Z</time>
      </trkpt>
      <trkpt lat="45.04503" lon="5.38563">
        <ele>771.11</ele>
        <time>2020-07-05T07:48:35Z</time>
      </trkpt>
      <trkpt lat="45.04499" lon="5.38576">
        <ele>773.04</ele>
        <time>2020-07-05T07:48:51Z</time>
      </trkpt>
      <trkpt lat="45.04495" lon="5.38582">
        <ele>774</ele>
        <time>2020-07-05T07:49:05Z</time>
      </trkpt>
      <trkpt lat="45.04485" lon="5.38583">
        <ele>774</ele>
        <time>2020-07-05T07:49:31Z</time>
      </trkpt>
      <trkpt lat="45.04483" lon="5.38582">
        <ele>774</ele>
        <time>2020-07-05T07:49:58Z</time>
      </trkpt>
      <trkpt lat="45.04481" lon="5.38581">
        <ele>774.96</ele>
        <time>2020-07-05T07:51:31Z</time>
      </trkpt>
      <trkpt lat="45.04475" lon="5.38589">
        <ele>774.96</ele>
        <time>2020-07-05T07:51:48Z</time>
      </trkpt>
      <trkpt lat="45.04471" lon="5.38605">
        <ele>775.92</ele>
        <time>2020-07-05T07:52:02Z</time>
      </trkpt>
      <trkpt lat="45.0447" lon="5.38619">
        <ele>777.84</ele>
        <time>2020-07-05T07:52:14Z</time>
      </trkpt>
      <trkpt lat="45.0447" lon="5.38637">
        <ele>781.21</ele>
        <time>2020-07-05T07:52:31Z</time>
      </trkpt>
      <trkpt lat="45.0447" lon="5.3865">
        <ele>782.65</ele>
        <time>2020-07-05T07:52:45Z</time>
      </trkpt>
      <trkpt lat="45.0447" lon="5.38656">
        <ele>783.13</ele>
        <time>2020-07-05T07:52:50Z</time>
      </trkpt>
      <trkpt lat="45.04472" lon="5.38674">
        <ele>785.53</ele>
        <time>2020-07-05T07:53:04Z</time>
      </trkpt>
      <trkpt lat="45.04471" lon="5.38693">
        <ele>787.46</ele>
        <time>2020-07-05T07:53:21Z</time>
      </trkpt>
      <trkpt lat="45.04471" lon="5.38705">
        <ele>788.9</ele>
        <time>2020-07-05T07:53:34Z</time>
      </trkpt>
      <trkpt lat="45.04471" lon="5.38717">
        <ele>791.3</ele>
        <time>2020-07-05T07:53:50Z</time>
      </trkpt>
      <trkpt lat="45.04465" lon="5.38737">
        <ele>794.67</ele>
        <time>2020-07-05T07:54:06Z</time>
      </trkpt>
      <trkpt lat="45.04464" lon="5.38748">
        <ele>796.11</ele>
        <time>2020-07-05T07:54:17Z</time>
      </trkpt>
      <trkpt lat="45.04454" lon="5.3876">
        <ele>797.55</ele>
        <time>2020-07-05T07:54:30Z</time>
      </trkpt>
      <trkpt lat="45.0444" lon="5.38764">
        <ele>799.47</ele>
        <time>2020-07-05T07:54:44Z</time>
      </trkpt>
      <trkpt lat="45.04427" lon="5.3877">
        <ele>802.84</ele>
        <time>2020-07-05T07:55:02Z</time>
      </trkpt>
      <trkpt lat="45.04418" lon="5.3878">
        <ele>805.24</ele>
        <time>2020-07-05T07:55:18Z</time>
      </trkpt>
      <trkpt lat="45.04411" lon="5.3879">
        <ele>808.13</ele>
        <time>2020-07-05T07:55:33Z</time>
      </trkpt>
      <trkpt lat="45.04407" lon="5.388">
        <ele>810.53</ele>
        <time>2020-07-05T07:55:47Z</time>
      </trkpt>
      <trkpt lat="45.04406" lon="5.38811">
        <ele>812.93</ele>
        <time>2020-07-05T07:56:02Z</time>
      </trkpt>
      <trkpt lat="45.04408" lon="5.38824">
        <ele>816.3</ele>
        <time>2020-07-05T07:56:19Z</time>
      </trkpt>
      <trkpt lat="45.04409" lon="5.38817">
        <ele>817.26</ele>
        <time>2020-07-05T07:56:39Z</time>
      </trkpt>
      <trkpt lat="45.04416" lon="5.38812">
        <ele>818.7</ele>
        <time>2020-07-05T07:56:57Z</time>
      </trkpt>
      <trkpt lat="45.04424" lon="5.38814">
        <ele>820.62</ele>
        <time>2020-07-05T07:57:15Z</time>
      </trkpt>
      <trkpt lat="45.04432" lon="5.3881">
        <ele>822.55</ele>
        <time>2020-07-05T07:57:30Z</time>
      </trkpt>
      <trkpt lat="45.04442" lon="5.38807">
        <ele>823.99</ele>
        <time>2020-07-05T07:57:45Z</time>
      </trkpt>
      <trkpt lat="45.04453" lon="5.38811">
        <ele>825.43</ele>
        <time>2020-07-05T07:58:02Z</time>
      </trkpt>
      <trkpt lat="45.04466" lon="5.38809">
        <ele>826.87</ele>
        <time>2020-07-05T07:58:19Z</time>
      </trkpt>
      <trkpt lat="45.04476" lon="5.38815">
        <ele>829.76</ele>
        <time>2020-07-05T07:58:35Z</time>
      </trkpt>
      <trkpt lat="45.04491" lon="5.38808">
        <ele>830.72</ele>
        <time>2020-07-05T07:58:48Z</time>
      </trkpt>
      <trkpt lat="45.04501" lon="5.38797">
        <ele>832.16</ele>
        <time>2020-07-05T07:59:04Z</time>
      </trkpt>
      <trkpt lat="45.04509" lon="5.38777">
        <ele>834.56</ele>
        <time>2020-07-05T07:59:20Z</time>
      </trkpt>
      <trkpt lat="45.04512" lon="5.38763">
        <ele>836.96</ele>
        <time>2020-07-05T07:59:37Z</time>
      </trkpt>
      <trkpt lat="45.04518" lon="5.38751">
        <ele>839.37</ele>
        <time>2020-07-05T07:59:52Z</time>
      </trkpt>
      <trkpt lat="45.04529" lon="5.38739">
        <ele>842.73</ele>
        <time>2020-07-05T08:00:09Z</time>
      </trkpt>
      <trkpt lat="45.04537" lon="5.38726">
        <ele>845.62</ele>
        <time>2020-07-05T08:00:27Z</time>
      </trkpt>
      <trkpt lat="45.04547" lon="5.38717">
        <ele>848.98</ele>
        <time>2020-07-05T08:00:45Z</time>
      </trkpt>
      <trkpt lat="45.04554" lon="5.38713">
        <ele>852.35</ele>
        <time>2020-07-05T08:01:01Z</time>
      </trkpt>
      <trkpt lat="45.04564" lon="5.38711">
        <ele>854.75</ele>
        <time>2020-07-05T08:01:19Z</time>
      </trkpt>
      <trkpt lat="45.04572" lon="5.38708">
        <ele>858.11</ele>
        <time>2020-07-05T08:01:34Z</time>
      </trkpt>
      <trkpt lat="45.04578" lon="5.38696">
        <ele>861</ele>
        <time>2020-07-05T08:01:52Z</time>
      </trkpt>
      <trkpt lat="45.04586" lon="5.38689">
        <ele>862.44</ele>
        <time>2020-07-05T08:02:05Z</time>
      </trkpt>
      <trkpt lat="45.04592" lon="5.38683">
        <ele>865.32</ele>
        <time>2020-07-05T08:02:19Z</time>
      </trkpt>
      <trkpt lat="45.04603" lon="5.38674">
        <ele>868.21</ele>
        <time>2020-07-05T08:02:36Z</time>
      </trkpt>
      <trkpt lat="45.04612" lon="5.38667">
        <ele>871.57</ele>
        <time>2020-07-05T08:02:54Z</time>
      </trkpt>
      <trkpt lat="45.04616" lon="5.38668">
        <ele>873.01</ele>
        <time>2020-07-05T08:03:05Z</time>
      </trkpt>
      <trkpt lat="45.04614" lon="5.38678">
        <ele>875.9</ele>
        <time>2020-07-05T08:03:23Z</time>
      </trkpt>
      <trkpt lat="45.04615" lon="5.38688">
        <ele>878.78</ele>
        <time>2020-07-05T08:03:40Z</time>
      </trkpt>
      <trkpt lat="45.04617" lon="5.38699">
        <ele>881.67</ele>
        <time>2020-07-05T08:03:56Z</time>
      </trkpt>
      <trkpt lat="45.04615" lon="5.38712">
        <ele>884.55</ele>
        <time>2020-07-05T08:04:13Z</time>
      </trkpt>
      <trkpt lat="45.04613" lon="5.38722">
        <ele>887.43</ele>
        <time>2020-07-05T08:04:28Z</time>
      </trkpt>
      <trkpt lat="45.04614" lon="5.38731">
        <ele>889.84</ele>
        <time>2020-07-05T08:04:43Z</time>
      </trkpt>
      <trkpt lat="45.04614" lon="5.38736">
        <ele>892.24</ele>
        <time>2020-07-05T08:04:58Z</time>
      </trkpt>
      <trkpt lat="45.04618" lon="5.38737">
        <ele>895.12</ele>
        <time>2020-07-05T08:05:15Z</time>
      </trkpt>
      <trkpt lat="45.04616" lon="5.38746">
        <ele>898.49</ele>
        <time>2020-07-05T08:05:32Z</time>
      </trkpt>
      <trkpt lat="45.04612" lon="5.38758">
        <ele>900.89</ele>
        <time>2020-07-05T08:05:50Z</time>
      </trkpt>
      <trkpt lat="45.04615" lon="5.38769">
        <ele>904.74</ele>
        <time>2020-07-05T08:06:07Z</time>
      </trkpt>
      <trkpt lat="45.04621" lon="5.38767">
        <ele>907.14</ele>
        <time>2020-07-05T08:06:25Z</time>
      </trkpt>
      <trkpt lat="45.04623" lon="5.38773">
        <ele>909.54</ele>
        <time>2020-07-05T08:06:38Z</time>
      </trkpt>
      <trkpt lat="45.04624" lon="5.38782">
        <ele>912.43</ele>
        <time>2020-07-05T08:06:56Z</time>
      </trkpt>
      <trkpt lat="45.04624" lon="5.38794">
        <ele>914.83</ele>
        <time>2020-07-05T08:07:13Z</time>
      </trkpt>
      <trkpt lat="45.04623" lon="5.38809">
        <ele>917.72</ele>
        <time>2020-07-05T08:07:30Z</time>
      </trkpt>
      <trkpt lat="45.04624" lon="5.38813">
        <ele>920.12</ele>
        <time>2020-07-05T08:07:46Z</time>
      </trkpt>
      <trkpt lat="45.04629" lon="5.3882">
        <ele>922.52</ele>
        <time>2020-07-05T08:08:02Z</time>
      </trkpt>
      <trkpt lat="45.04636" lon="5.38814">
        <ele>925.41</ele>
        <time>2020-07-05T08:08:19Z</time>
      </trkpt>
      <trkpt lat="45.04642" lon="5.38812">
        <ele>926.37</ele>
        <time>2020-07-05T08:08:38Z</time>
      </trkpt>
      <trkpt lat="45.04643" lon="5.38817">
        <ele>928.29</ele>
        <time>2020-07-05T08:08:55Z</time>
      </trkpt>
      <trkpt lat="45.04643" lon="5.38826">
        <ele>930.69</ele>
        <time>2020-07-05T08:09:11Z</time>
      </trkpt>
      <trkpt lat="45.04642" lon="5.38836">
        <ele>933.1</ele>
        <time>2020-07-05T08:09:25Z</time>
      </trkpt>
      <trkpt lat="45.04643" lon="5.38845">
        <ele>935.5</ele>
        <time>2020-07-05T08:09:39Z</time>
      </trkpt>
      <trkpt lat="45.04645" lon="5.38851">
        <ele>937.42</ele>
        <time>2020-07-05T08:09:52Z</time>
      </trkpt>
      <trkpt lat="45.04644" lon="5.38861">
        <ele>940.31</ele>
        <time>2020-07-05T08:10:06Z</time>
      </trkpt>
      <trkpt lat="45.04647" lon="5.38867">
        <ele>942.71</ele>
        <time>2020-07-05T08:10:20Z</time>
      </trkpt>
      <trkpt lat="45.04646" lon="5.38877">
        <ele>944.63</ele>
        <time>2020-07-05T08:10:35Z</time>
      </trkpt>
      <trkpt lat="45.04643" lon="5.38884">
        <ele>946.56</ele>
        <time>2020-07-05T08:10:47Z</time>
      </trkpt>
      <trkpt lat="45.04642" lon="5.38892">
        <ele>948</ele>
        <time>2020-07-05T08:11:03Z</time>
      </trkpt>
      <trkpt lat="45.04641" lon="5.38898">
        <ele>948.96</ele>
        <time>2020-07-05T08:11:16Z</time>
      </trkpt>
      <trkpt lat="45.04633" lon="5.38918">
        <ele>950.88</ele>
        <time>2020-07-05T08:11:31Z</time>
      </trkpt>
      <trkpt lat="45.04616" lon="5.38941">
        <ele>953.28</ele>
        <time>2020-07-05T08:11:45Z</time>
      </trkpt>
      <trkpt lat="45.04621" lon="5.38935">
        <ele>955.21</ele>
        <time>2020-07-05T08:12:00Z</time>
      </trkpt>
      <trkpt lat="45.04627" lon="5.38927">
        <ele>957.61</ele>
        <time>2020-07-05T08:12:15Z</time>
      </trkpt>
      <trkpt lat="45.04633" lon="5.38926">
        <ele>959.53</ele>
        <time>2020-07-05T08:12:27Z</time>
      </trkpt>
      <trkpt lat="45.04635" lon="5.38933">
        <ele>961.94</ele>
        <time>2020-07-05T08:12:43Z</time>
      </trkpt>
      <trkpt lat="45.04633" lon="5.38939">
        <ele>964.82</ele>
        <time>2020-07-05T08:12:58Z</time>
      </trkpt>
      <trkpt lat="45.04636" lon="5.3894">
        <ele>966.74</ele>
        <time>2020-07-05T08:13:10Z</time>
      </trkpt>
      <trkpt lat="45.04639" lon="5.38945">
        <ele>968.67</ele>
        <time>2020-07-05T08:13:25Z</time>
      </trkpt>
      <trkpt lat="45.0464" lon="5.38949">
        <ele>971.55</ele>
        <time>2020-07-05T08:13:39Z</time>
      </trkpt>
      <trkpt lat="45.04645" lon="5.38943">
        <ele>973.47</ele>
        <time>2020-07-05T08:13:51Z</time>
      </trkpt>
      <trkpt lat="45.04649" lon="5.38941">
        <ele>974.91</ele>
        <time>2020-07-05T08:14:02Z</time>
      </trkpt>
      <trkpt lat="45.04656" lon="5.38939">
        <ele>977.8</ele>
        <time>2020-07-05T08:14:17Z</time>
      </trkpt>
      <trkpt lat="45.04655" lon="5.38944">
        <ele>979.72</ele>
        <time>2020-07-05T08:14:30Z</time>
      </trkpt>
      <trkpt lat="45.04652" lon="5.38949">
        <ele>980.68</ele>
        <time>2020-07-05T08:14:45Z</time>
      </trkpt>
      <trkpt lat="45.04653" lon="5.3895">
        <ele>980.68</ele>
        <time>2020-07-05T08:15:02Z</time>
      </trkpt>
      <trkpt lat="45.04657" lon="5.3896">
        <ele>981.16</ele>
        <time>2020-07-05T08:15:27Z</time>
      </trkpt>
      <trkpt lat="45.04659" lon="5.38961">
        <ele>981.16</ele>
        <time>2020-07-05T08:15:47Z</time>
      </trkpt>
      <trkpt lat="45.04666" lon="5.38956">
        <ele>981.64</ele>
        <time>2020-07-05T08:16:15Z</time>
      </trkpt>
      <trkpt lat="45.04669" lon="5.38955">
        <ele>981.64</ele>
        <time>2020-07-05T08:16:34Z</time>
      </trkpt>
      <trkpt lat="45.04669" lon="5.3896">
        <ele>981.16</ele>
        <time>2020-07-05T08:17:22Z</time>
      </trkpt>
      <trkpt lat="45.04667" lon="5.38965">
        <ele>981.16</ele>
        <time>2020-07-05T08:21:10Z</time>
      </trkpt>
      <trkpt lat="45.04669" lon="5.38966">
        <ele>981.64</ele>
        <time>2020-07-05T08:21:40Z</time>
      </trkpt>
      <trkpt lat="45.04671" lon="5.38966">
        <ele>984.53</ele>
        <time>2020-07-05T08:21:56Z</time>
      </trkpt>
      <trkpt lat="45.04673" lon="5.38966">
        <ele>987.89</ele>
        <time>2020-07-05T08:22:06Z</time>
      </trkpt>
      <trkpt lat="45.04673" lon="5.38965">
        <ele>987.89</ele>
        <time>2020-07-05T08:22:07Z</time>
      </trkpt>
      <trkpt lat="45.04679" lon="5.38962">
        <ele>988.85</ele>
        <time>2020-07-05T08:22:21Z</time>
      </trkpt>
      <trkpt lat="45.04685" lon="5.38956">
        <ele>991.26</ele>
        <time>2020-07-05T08:22:33Z</time>
      </trkpt>
      <trkpt lat="45.04688" lon="5.38946">
        <ele>994.14</ele>
        <time>2020-07-05T08:22:49Z</time>
      </trkpt>
      <trkpt lat="45.04695" lon="5.38938">
        <ele>997.02</ele>
        <time>2020-07-05T08:23:04Z</time>
      </trkpt>
      <trkpt lat="45.0469" lon="5.38947">
        <ele>998.95</ele>
        <time>2020-07-05T08:23:17Z</time>
      </trkpt>
      <trkpt lat="45.04684" lon="5.38953">
        <ele>1000.39</ele>
        <time>2020-07-05T08:23:30Z</time>
      </trkpt>
      <trkpt lat="45.04677" lon="5.3896">
        <ele>1003.27</ele>
        <time>2020-07-05T08:23:46Z</time>
      </trkpt>
      <trkpt lat="45.04677" lon="5.38961">
        <ele>1005.2</ele>
        <time>2020-07-05T08:24:00Z</time>
      </trkpt>
      <trkpt lat="45.04685" lon="5.38958">
        <ele>1007.6</ele>
        <time>2020-07-05T08:24:16Z</time>
      </trkpt>
      <trkpt lat="45.04685" lon="5.38962">
        <ele>1010</ele>
        <time>2020-07-05T08:24:30Z</time>
      </trkpt>
      <trkpt lat="45.04676" lon="5.38974">
        <ele>1012.41</ele>
        <time>2020-07-05T08:24:44Z</time>
      </trkpt>
      <trkpt lat="45.0467" lon="5.38983">
        <ele>1013.85</ele>
        <time>2020-07-05T08:24:56Z</time>
      </trkpt>
      <trkpt lat="45.04663" lon="5.38993">
        <ele>1016.25</ele>
        <time>2020-07-05T08:25:11Z</time>
      </trkpt>
      <trkpt lat="45.04658" lon="5.39002">
        <ele>1018.65</ele>
        <time>2020-07-05T08:25:25Z</time>
      </trkpt>
      <trkpt lat="45.04652" lon="5.39009">
        <ele>1021.06</ele>
        <time>2020-07-05T08:25:40Z</time>
      </trkpt>
      <trkpt lat="45.04649" lon="5.39012">
        <ele>1022.98</ele>
        <time>2020-07-05T08:25:48Z</time>
      </trkpt>
      <trkpt lat="45.04642" lon="5.39015">
        <ele>1026.34</ele>
        <time>2020-07-05T08:26:05Z</time>
      </trkpt>
      <trkpt lat="45.04641" lon="5.39023">
        <ele>1029.71</ele>
        <time>2020-07-05T08:26:24Z</time>
      </trkpt>
      <trkpt lat="45.0464" lon="5.39026">
        <ele>1031.63</ele>
        <time>2020-07-05T08:26:43Z</time>
      </trkpt>
      <trkpt lat="45.04637" lon="5.39026">
        <ele>1032.11</ele>
        <time>2020-07-05T08:27:04Z</time>
      </trkpt>
      <trkpt lat="45.04637" lon="5.39028">
        <ele>1032.59</ele>
        <time>2020-07-05T08:27:31Z</time>
      </trkpt>
      <trkpt lat="45.04637" lon="5.39026">
        <ele>1032.59</ele>
        <time>2020-07-05T08:27:52Z</time>
      </trkpt>
      <trkpt lat="45.04637" lon="5.39021">
        <ele>1033.07</ele>
        <time>2020-07-05T08:28:17Z</time>
      </trkpt>
      <trkpt lat="45.04635" lon="5.39021">
        <ele>1033.55</ele>
        <time>2020-07-05T08:28:39Z</time>
      </trkpt>
      <trkpt lat="45.04633" lon="5.39021">
        <ele>1035</ele>
        <time>2020-07-05T08:28:56Z</time>
      </trkpt>
      <trkpt lat="45.04632" lon="5.39018">
        <ele>1035.48</ele>
        <time>2020-07-05T08:29:22Z</time>
      </trkpt>
      <trkpt lat="45.04631" lon="5.39018">
        <ele>1035.48</ele>
        <time>2020-07-05T08:29:43Z</time>
      </trkpt>
      <trkpt lat="45.04632" lon="5.39023">
        <ele>1035.96</ele>
        <time>2020-07-05T08:30:05Z</time>
      </trkpt>
      <trkpt lat="45.04629" lon="5.39026">
        <ele>1036.92</ele>
        <time>2020-07-05T08:30:26Z</time>
      </trkpt>
      <trkpt lat="45.04626" lon="5.39026">
        <ele>1038.36</ele>
        <time>2020-07-05T08:30:43Z</time>
      </trkpt>
      <trkpt lat="45.04624" lon="5.39021">
        <ele>1038.84</ele>
        <time>2020-07-05T08:31:01Z</time>
      </trkpt>
      <trkpt lat="45.0462" lon="5.39023">
        <ele>1041.25</ele>
        <time>2020-07-05T08:31:14Z</time>
      </trkpt>
      <trkpt lat="45.04613" lon="5.39022">
        <ele>1043.65</ele>
        <time>2020-07-05T08:31:29Z</time>
      </trkpt>
      <trkpt lat="45.04607" lon="5.39031">
        <ele>1045.57</ele>
        <time>2020-07-05T08:31:46Z</time>
      </trkpt>
      <trkpt lat="45.04604" lon="5.39039">
        <ele>1046.53</ele>
        <time>2020-07-05T08:32:03Z</time>
      </trkpt>
      <trkpt lat="45.04604" lon="5.39044">
        <ele>1049.42</ele>
        <time>2020-07-05T08:32:16Z</time>
      </trkpt>
      <trkpt lat="45.04603" lon="5.39047">
        <ele>1051.34</ele>
        <time>2020-07-05T08:32:34Z</time>
      </trkpt>
      <trkpt lat="45.0461" lon="5.39041">
        <ele>1052.3</ele>
        <time>2020-07-05T08:32:49Z</time>
      </trkpt>
      <trkpt lat="45.0462" lon="5.39038">
        <ele>1053.26</ele>
        <time>2020-07-05T08:33:04Z</time>
      </trkpt>
      <trkpt lat="45.04616" lon="5.39047">
        <ele>1055.67</ele>
        <time>2020-07-05T08:33:21Z</time>
      </trkpt>
      <trkpt lat="45.04619" lon="5.39045">
        <ele>1057.59</ele>
        <time>2020-07-05T08:33:35Z</time>
      </trkpt>
      <trkpt lat="45.04617" lon="5.39056">
        <ele>1059.99</ele>
        <time>2020-07-05T08:33:49Z</time>
      </trkpt>
      <trkpt lat="45.04612" lon="5.39064">
        <ele>1062.87</ele>
        <time>2020-07-05T08:34:04Z</time>
      </trkpt>
      <trkpt lat="45.04611" lon="5.39066">
        <ele>1065.76</ele>
        <time>2020-07-05T08:34:19Z</time>
      </trkpt>
      <trkpt lat="45.04621" lon="5.39063">
        <ele>1068.16</ele>
        <time>2020-07-05T08:34:37Z</time>
      </trkpt>
      <trkpt lat="45.04615" lon="5.39074">
        <ele>1071.05</ele>
        <time>2020-07-05T08:34:54Z</time>
      </trkpt>
      <trkpt lat="45.04614" lon="5.39079">
        <ele>1073.45</ele>
        <time>2020-07-05T08:35:10Z</time>
      </trkpt>
      <trkpt lat="45.04621" lon="5.39081">
        <ele>1076.81</ele>
        <time>2020-07-05T08:35:25Z</time>
      </trkpt>
      <trkpt lat="45.04619" lon="5.39092">
        <ele>1079.22</ele>
        <time>2020-07-05T08:35:41Z</time>
      </trkpt>
      <trkpt lat="45.04613" lon="5.39097">
        <ele>1082.1</ele>
        <time>2020-07-05T08:35:55Z</time>
      </trkpt>
      <trkpt lat="45.04611" lon="5.39101">
        <ele>1084.99</ele>
        <time>2020-07-05T08:36:11Z</time>
      </trkpt>
      <trkpt lat="45.04607" lon="5.39106">
        <ele>1087.39</ele>
        <time>2020-07-05T08:36:21Z</time>
      </trkpt>
      <trkpt lat="45.04605" lon="5.39109">
        <ele>1089.31</ele>
        <time>2020-07-05T08:36:34Z</time>
      </trkpt>
      <trkpt lat="45.04598" lon="5.39114">
        <ele>1092.68</ele>
        <time>2020-07-05T08:36:50Z</time>
      </trkpt>
      <trkpt lat="45.04589" lon="5.39121">
        <ele>1094.12</ele>
        <time>2020-07-05T08:37:03Z</time>
      </trkpt>
      <trkpt lat="45.04588" lon="5.39128">
        <ele>1096.52</ele>
        <time>2020-07-05T08:37:18Z</time>
      </trkpt>
      <trkpt lat="45.04596" lon="5.39129">
        <ele>1099.4</ele>
        <time>2020-07-05T08:37:36Z</time>
      </trkpt>
      <trkpt lat="45.04601" lon="5.39131">
        <ele>1101.81</ele>
        <time>2020-07-05T08:37:52Z</time>
      </trkpt>
      <trkpt lat="45.04604" lon="5.39123">
        <ele>1101.81</ele>
        <time>2020-07-05T08:38:11Z</time>
      </trkpt>
      <trkpt lat="45.04603" lon="5.39119">
        <ele>1101.81</ele>
        <time>2020-07-05T08:38:25Z</time>
      </trkpt>
      <trkpt lat="45.04602" lon="5.39117">
        <ele>1102.29</ele>
        <time>2020-07-05T08:38:41Z</time>
      </trkpt>
      <trkpt lat="45.0461" lon="5.39114">
        <ele>1102.29</ele>
        <time>2020-07-05T08:38:55Z</time>
      </trkpt>
      <trkpt lat="45.04621" lon="5.39105">
        <ele>1100.85</ele>
        <time>2020-07-05T08:39:11Z</time>
      </trkpt>
      <trkpt lat="45.04632" lon="5.39092">
        <ele>1100.37</ele>
        <time>2020-07-05T08:39:25Z</time>
      </trkpt>
      <trkpt lat="45.04647" lon="5.39082">
        <ele>1099.89</ele>
        <time>2020-07-05T08:39:41Z</time>
      </trkpt>
      <trkpt lat="45.0466" lon="5.39068">
        <ele>1100.85</ele>
        <time>2020-07-05T08:39:55Z</time>
      </trkpt>
      <trkpt lat="45.04663" lon="5.39049">
        <ele>1102.77</ele>
        <time>2020-07-05T08:40:13Z</time>
      </trkpt>
      <trkpt lat="45.04668" lon="5.39045">
        <ele>1103.73</ele>
        <time>2020-07-05T08:40:32Z</time>
      </trkpt>
      <trkpt lat="45.04668" lon="5.39046">
        <ele>1104.21</ele>
        <time>2020-07-05T08:41:45Z</time>
      </trkpt>
      <trkpt lat="45.0467" lon="5.39048">
        <ele>1104.69</ele>
        <time>2020-07-05T08:42:18Z</time>
      </trkpt>
      <trkpt lat="45.0467" lon="5.39048">
        <ele>1104.69</ele>
        <time>2020-07-05T08:42:38Z</time>
      </trkpt>
      <trkpt lat="45.04671" lon="5.39046">
        <ele>1105.17</ele>
        <time>2020-07-05T08:42:58Z</time>
      </trkpt>
      <trkpt lat="45.04674" lon="5.39048">
        <ele>1105.17</ele>
        <time>2020-07-05T08:43:14Z</time>
      </trkpt>
      <trkpt lat="45.04683" lon="5.39051">
        <ele>1102.77</ele>
        <time>2020-07-05T08:43:30Z</time>
      </trkpt>
      <trkpt lat="45.04688" lon="5.39053">
        <ele>1102.29</ele>
        <time>2020-07-05T08:43:45Z</time>
      </trkpt>
      <trkpt lat="45.047" lon="5.39061">
        <ele>1100.37</ele>
        <time>2020-07-05T08:44:01Z</time>
      </trkpt>
      <trkpt lat="45.04707" lon="5.39063">
        <ele>1099.4</ele>
        <time>2020-07-05T08:44:09Z</time>
      </trkpt>
      <trkpt lat="45.04717" lon="5.39064">
        <ele>1097</ele>
        <time>2020-07-05T08:44:25Z</time>
      </trkpt>
      <trkpt lat="45.04721" lon="5.3906">
        <ele>1096.52</ele>
        <time>2020-07-05T08:44:46Z</time>
      </trkpt>
      <trkpt lat="45.04725" lon="5.39066">
        <ele>1095.08</ele>
        <time>2020-07-05T08:45:02Z</time>
      </trkpt>
      <trkpt lat="45.04732" lon="5.39084">
        <ele>1097</ele>
        <time>2020-07-05T08:45:20Z</time>
      </trkpt>
      <trkpt lat="45.04738" lon="5.39102">
        <ele>1098.44</ele>
        <time>2020-07-05T08:45:34Z</time>
      </trkpt>
      <trkpt lat="45.04736" lon="5.39116">
        <ele>1098.44</ele>
        <time>2020-07-05T08:45:49Z</time>
      </trkpt>
      <trkpt lat="45.04735" lon="5.39117">
        <ele>1098.44</ele>
        <time>2020-07-05T08:46:08Z</time>
      </trkpt>
      <trkpt lat="45.04732" lon="5.39119">
        <ele>1098.44</ele>
        <time>2020-07-05T08:46:25Z</time>
      </trkpt>
      <trkpt lat="45.04723" lon="5.39123">
        <ele>1098.92</ele>
        <time>2020-07-05T08:46:38Z</time>
      </trkpt>
      <trkpt lat="45.04709" lon="5.39124">
        <ele>1099.89</ele>
        <time>2020-07-05T08:46:54Z</time>
      </trkpt>
      <trkpt lat="45.04699" lon="5.39123">
        <ele>1098.92</ele>
        <time>2020-07-05T08:47:07Z</time>
      </trkpt>
      <trkpt lat="45.04684" lon="5.39126">
        <ele>1098.44</ele>
        <time>2020-07-05T08:47:20Z</time>
      </trkpt>
      <trkpt lat="45.04667" lon="5.39129">
        <ele>1098.44</ele>
        <time>2020-07-05T08:47:37Z</time>
      </trkpt>
      <trkpt lat="45.04656" lon="5.39136">
        <ele>1098.44</ele>
        <time>2020-07-05T08:47:51Z</time>
      </trkpt>
      <trkpt lat="45.04644" lon="5.3914">
        <ele>1094.6</ele>
        <time>2020-07-05T08:48:07Z</time>
      </trkpt>
      <trkpt lat="45.04627" lon="5.39158">
        <ele>1092.68</ele>
        <time>2020-07-05T08:48:25Z</time>
      </trkpt>
      <trkpt lat="45.04612" lon="5.39213">
        <ele>1090.27</ele>
        <time>2020-07-05T08:48:41Z</time>
      </trkpt>
      <trkpt lat="45.04605" lon="5.39246">
        <ele>1088.83</ele>
        <time>2020-07-05T08:48:56Z</time>
      </trkpt>
      <trkpt lat="45.04607" lon="5.3925">
        <ele>1088.35</ele>
        <time>2020-07-05T08:49:00Z</time>
      </trkpt>
      <trkpt lat="45.04621" lon="5.39257">
        <ele>1089.79</ele>
        <time>2020-07-05T08:49:17Z</time>
      </trkpt>
      <trkpt lat="45.04642" lon="5.39263">
        <ele>1089.79</ele>
        <time>2020-07-05T08:49:37Z</time>
      </trkpt>
      <trkpt lat="45.0464" lon="5.39261">
        <ele>1089.79</ele>
        <time>2020-07-05T08:49:59Z</time>
      </trkpt>
      <trkpt lat="45.04639" lon="5.3927">
        <ele>1089.79</ele>
        <time>2020-07-05T08:50:09Z</time>
      </trkpt>
      <trkpt lat="45.04637" lon="5.39289">
        <ele>1088.83</ele>
        <time>2020-07-05T08:50:23Z</time>
      </trkpt>
      <trkpt lat="45.04634" lon="5.39307">
        <ele>1088.83</ele>
        <time>2020-07-05T08:50:38Z</time>
      </trkpt>
      <trkpt lat="45.04635" lon="5.3931">
        <ele>1090.27</ele>
        <time>2020-07-05T08:50:42Z</time>
      </trkpt>
      <trkpt lat="45.04638" lon="5.39323">
        <ele>1090.75</ele>
        <time>2020-07-05T08:50:59Z</time>
      </trkpt>
      <trkpt lat="45.04644" lon="5.39338">
        <ele>1089.31</ele>
        <time>2020-07-05T08:51:14Z</time>
      </trkpt>
      <trkpt lat="45.04644" lon="5.39339">
        <ele>1089.31</ele>
        <time>2020-07-05T08:51:15Z</time>
      </trkpt>
      <trkpt lat="45.04646" lon="5.3935">
        <ele>1089.31</ele>
        <time>2020-07-05T08:51:29Z</time>
      </trkpt>
      <trkpt lat="45.04651" lon="5.39365">
        <ele>1089.31</ele>
        <time>2020-07-05T08:51:49Z</time>
      </trkpt>
      <trkpt lat="45.04647" lon="5.3938">
        <ele>1088.83</ele>
        <time>2020-07-05T08:52:06Z</time>
      </trkpt>
      <trkpt lat="45.04648" lon="5.39393">
        <ele>1090.27</ele>
        <time>2020-07-05T08:52:21Z</time>
      </trkpt>
      <trkpt lat="45.04648" lon="5.39409">
        <ele>1090.27</ele>
        <time>2020-07-05T08:52:34Z</time>
      </trkpt>
      <trkpt lat="45.04646" lon="5.39416">
        <ele>1090.27</ele>
        <time>2020-07-05T08:52:37Z</time>
      </trkpt>
      <trkpt lat="45.0464" lon="5.39437">
        <ele>1092.2</ele>
        <time>2020-07-05T08:52:52Z</time>
      </trkpt>
      <trkpt lat="45.04637" lon="5.39452">
        <ele>1092.68</ele>
        <time>2020-07-05T08:53:06Z</time>
      </trkpt>
      <trkpt lat="45.04638" lon="5.39464">
        <ele>1093.16</ele>
        <time>2020-07-05T08:53:20Z</time>
      </trkpt>
      <trkpt lat="45.04637" lon="5.39475">
        <ele>1093.16</ele>
        <time>2020-07-05T08:53:34Z</time>
      </trkpt>
      <trkpt lat="45.04636" lon="5.39492">
        <ele>1094.12</ele>
        <time>2020-07-05T08:53:50Z</time>
      </trkpt>
      <trkpt lat="45.04636" lon="5.39509">
        <ele>1095.56</ele>
        <time>2020-07-05T08:54:06Z</time>
      </trkpt>
      <trkpt lat="45.04648" lon="5.39522">
        <ele>1095.56</ele>
        <time>2020-07-05T08:54:19Z</time>
      </trkpt>
      <trkpt lat="45.04659" lon="5.39533">
        <ele>1093.16</ele>
        <time>2020-07-05T08:54:29Z</time>
      </trkpt>
      <trkpt lat="45.04673" lon="5.39544">
        <ele>1092.2</ele>
        <time>2020-07-05T08:54:44Z</time>
      </trkpt>
      <trkpt lat="45.04682" lon="5.3955">
        <ele>1092.2</ele>
        <time>2020-07-05T08:55:00Z</time>
      </trkpt>
      <trkpt lat="45.04696" lon="5.39552">
        <ele>1091.23</ele>
        <time>2020-07-05T08:55:15Z</time>
      </trkpt>
      <trkpt lat="45.04694" lon="5.39558">
        <ele>1092.68</ele>
        <time>2020-07-05T08:55:31Z</time>
      </trkpt>
      <trkpt lat="45.04683" lon="5.39561">
        <ele>1093.16</ele>
        <time>2020-07-05T08:55:48Z</time>
      </trkpt>
      <trkpt lat="45.04675" lon="5.39561">
        <ele>1094.6</ele>
        <time>2020-07-05T08:56:02Z</time>
      </trkpt>
      <trkpt lat="45.04665" lon="5.39562">
        <ele>1094.6</ele>
        <time>2020-07-05T08:56:16Z</time>
      </trkpt>
      <trkpt lat="45.04656" lon="5.3956">
        <ele>1097.48</ele>
        <time>2020-07-05T08:56:30Z</time>
      </trkpt>
      <trkpt lat="45.04646" lon="5.39566">
        <ele>1100.37</ele>
        <time>2020-07-05T08:56:46Z</time>
      </trkpt>
      <trkpt lat="45.04636" lon="5.39587">
        <ele>1099.89</ele>
        <time>2020-07-05T08:57:04Z</time>
      </trkpt>
      <trkpt lat="45.04631" lon="5.39599">
        <ele>1100.37</ele>
        <time>2020-07-05T08:57:20Z</time>
      </trkpt>
      <trkpt lat="45.04628" lon="5.39611">
        <ele>1103.25</ele>
        <time>2020-07-05T08:57:40Z</time>
      </trkpt>
      <trkpt lat="45.04626" lon="5.3962">
        <ele>1106.61</ele>
        <time>2020-07-05T08:57:56Z</time>
      </trkpt>
      <trkpt lat="45.04619" lon="5.39625">
        <ele>1109.98</ele>
        <time>2020-07-05T08:58:12Z</time>
      </trkpt>
      <trkpt lat="45.04615" lon="5.39621">
        <ele>1112.86</ele>
        <time>2020-07-05T08:58:28Z</time>
      </trkpt>
      <trkpt lat="45.04612" lon="5.39612">
        <ele>1116.23</ele>
        <time>2020-07-05T08:58:43Z</time>
      </trkpt>
      <trkpt lat="45.0461" lon="5.39602">
        <ele>1119.11</ele>
        <time>2020-07-05T08:59:01Z</time>
      </trkpt>
      <trkpt lat="45.04609" lon="5.39595">
        <ele>1122</ele>
        <time>2020-07-05T08:59:15Z</time>
      </trkpt>
      <trkpt lat="45.04613" lon="5.39583">
        <ele>1124.4</ele>
        <time>2020-07-05T08:59:32Z</time>
      </trkpt>
      <trkpt lat="45.04614" lon="5.3957">
        <ele>1126.8</ele>
        <time>2020-07-05T08:59:48Z</time>
      </trkpt>
      <trkpt lat="45.0461" lon="5.3956">
        <ele>1129.69</ele>
        <time>2020-07-05T09:00:03Z</time>
      </trkpt>
      <trkpt lat="45.04605" lon="5.39549">
        <ele>1131.61</ele>
        <time>2020-07-05T09:00:19Z</time>
      </trkpt>
      <trkpt lat="45.04603" lon="5.39538">
        <ele>1132.09</ele>
        <time>2020-07-05T09:00:31Z</time>
      </trkpt>
      <trkpt lat="45.04602" lon="5.39528">
        <ele>1132.57</ele>
        <time>2020-07-05T09:00:46Z</time>
      </trkpt>
      <trkpt lat="45.04603" lon="5.39511">
        <ele>1134.01</ele>
        <time>2020-07-05T09:01:01Z</time>
      </trkpt>
      <trkpt lat="45.04601" lon="5.39491">
        <ele>1134.49</ele>
        <time>2020-07-05T09:01:17Z</time>
      </trkpt>
      <trkpt lat="45.04596" lon="5.39482">
        <ele>1134.49</ele>
        <time>2020-07-05T09:01:36Z</time>
      </trkpt>
      <trkpt lat="45.04587" lon="5.39471">
        <ele>1134.49</ele>
        <time>2020-07-05T09:01:51Z</time>
      </trkpt>
      <trkpt lat="45.04583" lon="5.39462">
        <ele>1134.49</ele>
        <time>2020-07-05T09:02:17Z</time>
      </trkpt>
      <trkpt lat="45.0458" lon="5.39463">
        <ele>1134.97</ele>
        <time>2020-07-05T09:03:06Z</time>
      </trkpt>
      <trkpt lat="45.04578" lon="5.39452">
        <ele>1136.42</ele>
        <time>2020-07-05T09:04:52Z</time>
      </trkpt>
      <trkpt lat="45.04586" lon="5.39433">
        <ele>1137.38</ele>
        <time>2020-07-05T09:05:08Z</time>
      </trkpt>
      <trkpt lat="45.04584" lon="5.39413">
        <ele>1138.34</ele>
        <time>2020-07-05T09:05:23Z</time>
      </trkpt>
      <trkpt lat="45.04576" lon="5.39394">
        <ele>1139.3</ele>
        <time>2020-07-05T09:05:37Z</time>
      </trkpt>
      <trkpt lat="45.04573" lon="5.39382">
        <ele>1140.26</ele>
        <time>2020-07-05T09:05:49Z</time>
      </trkpt>
      <trkpt lat="45.04571" lon="5.39364">
        <ele>1140.74</ele>
        <time>2020-07-05T09:06:02Z</time>
      </trkpt>
      <trkpt lat="45.04573" lon="5.3934">
        <ele>1143.63</ele>
        <time>2020-07-05T09:06:19Z</time>
      </trkpt>
      <trkpt lat="45.04574" lon="5.39325">
        <ele>1145.07</ele>
        <time>2020-07-05T09:06:33Z</time>
      </trkpt>
      <trkpt lat="45.04576" lon="5.393">
        <ele>1147.47</ele>
        <time>2020-07-05T09:06:51Z</time>
      </trkpt>
      <trkpt lat="45.04578" lon="5.39281">
        <ele>1149.39</ele>
        <time>2020-07-05T09:07:05Z</time>
      </trkpt>
      <trkpt lat="45.04582" lon="5.39252">
        <ele>1152.28</ele>
        <time>2020-07-05T09:07:22Z</time>
      </trkpt>
      <trkpt lat="45.04581" lon="5.39249">
        <ele>1153.24</ele>
        <time>2020-07-05T09:09:02Z</time>
      </trkpt>
      <trkpt lat="45.0457" lon="5.39244">
        <ele>1151.8</ele>
        <time>2020-07-05T09:09:18Z</time>
      </trkpt>
      <trkpt lat="45.04555" lon="5.39228">
        <ele>1152.28</ele>
        <time>2020-07-05T09:09:34Z</time>
      </trkpt>
      <trkpt lat="45.04552" lon="5.39229">
        <ele>1151.8</ele>
        <time>2020-07-05T09:09:47Z</time>
      </trkpt>
      <trkpt lat="45.0455" lon="5.39221">
        <ele>1151.8</ele>
        <time>2020-07-05T09:10:03Z</time>
      </trkpt>
      <trkpt lat="45.04538" lon="5.39208">
        <ele>1150.35</ele>
        <time>2020-07-05T09:10:19Z</time>
      </trkpt>
      <trkpt lat="45.04523" lon="5.39192">
        <ele>1149.87</ele>
        <time>2020-07-05T09:10:34Z</time>
      </trkpt>
      <trkpt lat="45.04508" lon="5.39184">
        <ele>1149.87</ele>
        <time>2020-07-05T09:10:50Z</time>
      </trkpt>
      <trkpt lat="45.04494" lon="5.39178">
        <ele>1149.87</ele>
        <time>2020-07-05T09:11:04Z</time>
      </trkpt>
      <trkpt lat="45.04477" lon="5.39179">
        <ele>1149.87</ele>
        <time>2020-07-05T09:11:20Z</time>
      </trkpt>
      <trkpt lat="45.04471" lon="5.39185">
        <ele>1151.32</ele>
        <time>2020-07-05T09:11:32Z</time>
      </trkpt>
      <trkpt lat="45.04467" lon="5.39204">
        <ele>1151.32</ele>
        <time>2020-07-05T09:11:47Z</time>
      </trkpt>
      <trkpt lat="45.04462" lon="5.39233">
        <ele>1152.28</ele>
        <time>2020-07-05T09:12:02Z</time>
      </trkpt>
      <trkpt lat="45.0446" lon="5.39254">
        <ele>1151.8</ele>
        <time>2020-07-05T09:12:15Z</time>
      </trkpt>
      <trkpt lat="45.04458" lon="5.39275">
        <ele>1153.24</ele>
        <time>2020-07-05T09:12:29Z</time>
      </trkpt>
      <trkpt lat="45.04454" lon="5.3929">
        <ele>1154.2</ele>
        <time>2020-07-05T09:12:43Z</time>
      </trkpt>
      <trkpt lat="45.0445" lon="5.39309">
        <ele>1155.16</ele>
        <time>2020-07-05T09:12:58Z</time>
      </trkpt>
      <trkpt lat="45.04445" lon="5.39327">
        <ele>1156.12</ele>
        <time>2020-07-05T09:13:12Z</time>
      </trkpt>
      <trkpt lat="45.04438" lon="5.39347">
        <ele>1158.53</ele>
        <time>2020-07-05T09:13:27Z</time>
      </trkpt>
      <trkpt lat="45.0443" lon="5.39369">
        <ele>1159.97</ele>
        <time>2020-07-05T09:13:42Z</time>
      </trkpt>
      <trkpt lat="45.04426" lon="5.39389">
        <ele>1160.45</ele>
        <time>2020-07-05T09:13:55Z</time>
      </trkpt>
      <trkpt lat="45.04425" lon="5.39401">
        <ele>1160.45</ele>
        <time>2020-07-05T09:14:08Z</time>
      </trkpt>
      <trkpt lat="45.0443" lon="5.39427">
        <ele>1158.53</ele>
        <time>2020-07-05T09:14:26Z</time>
      </trkpt>
      <trkpt lat="45.04439" lon="5.39454">
        <ele>1156.12</ele>
        <time>2020-07-05T09:14:43Z</time>
      </trkpt>
      <trkpt lat="45.04445" lon="5.39464">
        <ele>1155.16</ele>
        <time>2020-07-05T09:14:50Z</time>
      </trkpt>
      <trkpt lat="45.0446" lon="5.39471">
        <ele>1152.28</ele>
        <time>2020-07-05T09:15:07Z</time>
      </trkpt>
      <trkpt lat="45.04474" lon="5.39484">
        <ele>1151.32</ele>
        <time>2020-07-05T09:15:24Z</time>
      </trkpt>
      <trkpt lat="45.04477" lon="5.39503">
        <ele>1151.32</ele>
        <time>2020-07-05T09:15:39Z</time>
      </trkpt>
      <trkpt lat="45.04478" lon="5.3951">
        <ele>1152.28</ele>
        <time>2020-07-05T09:15:45Z</time>
      </trkpt>
      <trkpt lat="45.04477" lon="5.39526">
        <ele>1154.68</ele>
        <time>2020-07-05T09:16:00Z</time>
      </trkpt>
      <trkpt lat="45.0447" lon="5.39538">
        <ele>1157.56</ele>
        <time>2020-07-05T09:16:15Z</time>
      </trkpt>
      <trkpt lat="45.04463" lon="5.3955">
        <ele>1160.93</ele>
        <time>2020-07-05T09:16:32Z</time>
      </trkpt>
      <trkpt lat="45.04456" lon="5.39562">
        <ele>1162.37</ele>
        <time>2020-07-05T09:16:47Z</time>
      </trkpt>
      <trkpt lat="45.04445" lon="5.39577">
        <ele>1165.74</ele>
        <time>2020-07-05T09:17:06Z</time>
      </trkpt>
      <trkpt lat="45.04436" lon="5.39587">
        <ele>1168.62</ele>
        <time>2020-07-05T09:17:24Z</time>
      </trkpt>
      <trkpt lat="45.04424" lon="5.396">
        <ele>1171.02</ele>
        <time>2020-07-05T09:17:40Z</time>
      </trkpt>
      <trkpt lat="45.04415" lon="5.39613">
        <ele>1173.91</ele>
        <time>2020-07-05T09:17:58Z</time>
      </trkpt>
      <trkpt lat="45.04405" lon="5.39616">
        <ele>1176.79</ele>
        <time>2020-07-05T09:18:14Z</time>
      </trkpt>
      <trkpt lat="45.04396" lon="5.39608">
        <ele>1179.19</ele>
        <time>2020-07-05T09:18:31Z</time>
      </trkpt>
      <trkpt lat="45.04388" lon="5.39609">
        <ele>1182.56</ele>
        <time>2020-07-05T09:18:46Z</time>
      </trkpt>
      <trkpt lat="45.04376" lon="5.39616">
        <ele>1184.96</ele>
        <time>2020-07-05T09:19:04Z</time>
      </trkpt>
      <trkpt lat="45.04366" lon="5.39624">
        <ele>1187.37</ele>
        <time>2020-07-05T09:19:21Z</time>
      </trkpt>
      <trkpt lat="45.04357" lon="5.39634">
        <ele>1189.29</ele>
        <time>2020-07-05T09:19:35Z</time>
      </trkpt>
      <trkpt lat="45.0435" lon="5.39646">
        <ele>1191.21</ele>
        <time>2020-07-05T09:19:52Z</time>
      </trkpt>
      <trkpt lat="45.04341" lon="5.39663">
        <ele>1193.13</ele>
        <time>2020-07-05T09:20:08Z</time>
      </trkpt>
      <trkpt lat="45.04334" lon="5.39676">
        <ele>1194.58</ele>
        <time>2020-07-05T09:20:21Z</time>
      </trkpt>
      <trkpt lat="45.04322" lon="5.39675">
        <ele>1197.46</ele>
        <time>2020-07-05T09:20:36Z</time>
      </trkpt>
      <trkpt lat="45.04313" lon="5.39665">
        <ele>1199.86</ele>
        <time>2020-07-05T09:20:51Z</time>
      </trkpt>
      <trkpt lat="45.04305" lon="5.3966">
        <ele>1201.79</ele>
        <time>2020-07-05T09:21:05Z</time>
      </trkpt>
      <trkpt lat="45.04295" lon="5.39658">
        <ele>1203.71</ele>
        <time>2020-07-05T09:21:18Z</time>
      </trkpt>
      <trkpt lat="45.04281" lon="5.39656">
        <ele>1205.15</ele>
        <time>2020-07-05T09:21:32Z</time>
      </trkpt>
      <trkpt lat="45.04277" lon="5.39659">
        <ele>1206.11</ele>
        <time>2020-07-05T09:21:40Z</time>
      </trkpt>
      <trkpt lat="45.04273" lon="5.39669">
        <ele>1207.07</ele>
        <time>2020-07-05T09:21:53Z</time>
      </trkpt>
      <trkpt lat="45.04271" lon="5.39688">
        <ele>1208.51</ele>
        <time>2020-07-05T09:22:05Z</time>
      </trkpt>
      <trkpt lat="45.04269" lon="5.397">
        <ele>1209.96</ele>
        <time>2020-07-05T09:22:19Z</time>
      </trkpt>
      <trkpt lat="45.04271" lon="5.39703">
        <ele>1210.44</ele>
        <time>2020-07-05T09:23:51Z</time>
      </trkpt>
      <trkpt lat="45.04273" lon="5.39705">
        <ele>1210.92</ele>
        <time>2020-07-05T09:24:24Z</time>
      </trkpt>
      <trkpt lat="45.04272" lon="5.39721">
        <ele>1211.88</ele>
        <time>2020-07-05T09:24:46Z</time>
      </trkpt>
      <trkpt lat="45.04274" lon="5.39742">
        <ele>1214.28</ele>
        <time>2020-07-05T09:25:05Z</time>
      </trkpt>
      <trkpt lat="45.04284" lon="5.39763">
        <ele>1215.72</ele>
        <time>2020-07-05T09:25:22Z</time>
      </trkpt>
      <trkpt lat="45.04295" lon="5.39782">
        <ele>1218.13</ele>
        <time>2020-07-05T09:25:40Z</time>
      </trkpt>
      <trkpt lat="45.04307" lon="5.39801">
        <ele>1220.05</ele>
        <time>2020-07-05T09:25:56Z</time>
      </trkpt>
      <trkpt lat="45.04318" lon="5.39818">
        <ele>1221.49</ele>
        <time>2020-07-05T09:26:12Z</time>
      </trkpt>
      <trkpt lat="45.04327" lon="5.39836">
        <ele>1223.42</ele>
        <time>2020-07-05T09:26:27Z</time>
      </trkpt>
      <trkpt lat="45.04336" lon="5.39856">
        <ele>1224.38</ele>
        <time>2020-07-05T09:26:43Z</time>
      </trkpt>
      <trkpt lat="45.04346" lon="5.39874">
        <ele>1226.3</ele>
        <time>2020-07-05T09:26:57Z</time>
      </trkpt>
      <trkpt lat="45.04353" lon="5.39889">
        <ele>1227.74</ele>
        <time>2020-07-05T09:27:12Z</time>
      </trkpt>
      <trkpt lat="45.04358" lon="5.39895">
        <ele>1229.18</ele>
        <time>2020-07-05T09:27:29Z</time>
      </trkpt>
      <trkpt lat="45.04362" lon="5.39897">
        <ele>1229.18</ele>
        <time>2020-07-05T09:27:51Z</time>
      </trkpt>
      <trkpt lat="45.04359" lon="5.39905">
        <ele>1233.51</ele>
        <time>2020-07-05T09:34:10Z</time>
      </trkpt>
      <trkpt lat="45.04351" lon="5.3991">
        <ele>1234.47</ele>
        <time>2020-07-05T09:34:32Z</time>
      </trkpt>
      <trkpt lat="45.04346" lon="5.3991">
        <ele>1234.95</ele>
        <time>2020-07-05T09:34:37Z</time>
      </trkpt>
      <trkpt lat="45.04338" lon="5.39917">
        <ele>1236.87</ele>
        <time>2020-07-05T09:34:50Z</time>
      </trkpt>
      <trkpt lat="45.04331" lon="5.39928">
        <ele>1240.24</ele>
        <time>2020-07-05T09:35:05Z</time>
      </trkpt>
      <trkpt lat="45.04329" lon="5.39954">
        <ele>1241.68</ele>
        <time>2020-07-05T09:35:20Z</time>
      </trkpt>
      <trkpt lat="45.04342" lon="5.39954">
        <ele>1241.68</ele>
        <time>2020-07-05T09:35:35Z</time>
      </trkpt>
      <trkpt lat="45.04352" lon="5.39955">
        <ele>1239.76</ele>
        <time>2020-07-05T09:35:51Z</time>
      </trkpt>
      <trkpt lat="45.04358" lon="5.39955">
        <ele>1240.24</ele>
        <time>2020-07-05T09:36:12Z</time>
      </trkpt>
      <trkpt lat="45.04361" lon="5.39952">
        <ele>1240.24</ele>
        <time>2020-07-05T09:36:28Z</time>
      </trkpt>
      <trkpt lat="45.04361" lon="5.39953">
        <ele>1239.76</ele>
        <time>2020-07-05T09:36:46Z</time>
      </trkpt>
      <trkpt lat="45.04362" lon="5.39956">
        <ele>1239.76</ele>
        <time>2020-07-05T09:36:59Z</time>
      </trkpt>
      <trkpt lat="45.04361" lon="5.39957">
        <ele>1239.76</ele>
        <time>2020-07-05T09:37:21Z</time>
      </trkpt>
      <trkpt lat="45.04361" lon="5.3996">
        <ele>1239.76</ele>
        <time>2020-07-05T09:37:46Z</time>
      </trkpt>
      <trkpt lat="45.04361" lon="5.39962">
        <ele>1241.2</ele>
        <time>2020-07-05T09:38:08Z</time>
      </trkpt>
      <trkpt lat="45.0436" lon="5.3997">
        <ele>1241.68</ele>
        <time>2020-07-05T09:38:24Z</time>
      </trkpt>
      <trkpt lat="45.04358" lon="5.39979">
        <ele>1241.68</ele>
        <time>2020-07-05T09:38:38Z</time>
      </trkpt>
      <trkpt lat="45.04358" lon="5.39987">
        <ele>1240.24</ele>
        <time>2020-07-05T09:38:48Z</time>
      </trkpt>
      <trkpt lat="45.0436" lon="5.39999">
        <ele>1238.8</ele>
        <time>2020-07-05T09:39:03Z</time>
      </trkpt>
      <trkpt lat="45.04362" lon="5.40011">
        <ele>1236.87</ele>
        <time>2020-07-05T09:39:16Z</time>
      </trkpt>
      <trkpt lat="45.04361" lon="5.40027">
        <ele>1233.99</ele>
        <time>2020-07-05T09:39:29Z</time>
      </trkpt>
      <trkpt lat="45.04364" lon="5.40042">
        <ele>1230.62</ele>
        <time>2020-07-05T09:39:44Z</time>
      </trkpt>
      <trkpt lat="45.04367" lon="5.40056">
        <ele>1227.26</ele>
        <time>2020-07-05T09:39:57Z</time>
      </trkpt>
      <trkpt lat="45.04372" lon="5.40067">
        <ele>1225.82</ele>
        <time>2020-07-05T09:40:14Z</time>
      </trkpt>
      <trkpt lat="45.04375" lon="5.4008">
        <ele>1223.42</ele>
        <time>2020-07-05T09:40:32Z</time>
      </trkpt>
      <trkpt lat="45.04381" lon="5.40097">
        <ele>1221.01</ele>
        <time>2020-07-05T09:40:50Z</time>
      </trkpt>
      <trkpt lat="45.04389" lon="5.40112">
        <ele>1218.13</ele>
        <time>2020-07-05T09:41:07Z</time>
      </trkpt>
      <trkpt lat="45.04392" lon="5.40124">
        <ele>1216.69</ele>
        <time>2020-07-05T09:41:21Z</time>
      </trkpt>
      <trkpt lat="45.04393" lon="5.40131">
        <ele>1215.72</ele>
        <time>2020-07-05T09:41:35Z</time>
      </trkpt>
      <trkpt lat="45.04403" lon="5.40143">
        <ele>1214.28</ele>
        <time>2020-07-05T09:41:52Z</time>
      </trkpt>
      <trkpt lat="45.04406" lon="5.40156">
        <ele>1211.4</ele>
        <time>2020-07-05T09:42:04Z</time>
      </trkpt>
      <trkpt lat="45.0441" lon="5.40171">
        <ele>1208.03</ele>
        <time>2020-07-05T09:42:18Z</time>
      </trkpt>
      <trkpt lat="45.04414" lon="5.40184">
        <ele>1206.11</ele>
        <time>2020-07-05T09:42:33Z</time>
      </trkpt>
      <trkpt lat="45.04418" lon="5.40201">
        <ele>1203.71</ele>
        <time>2020-07-05T09:42:51Z</time>
      </trkpt>
      <trkpt lat="45.04418" lon="5.4021">
        <ele>1202.27</ele>
        <time>2020-07-05T09:43:08Z</time>
      </trkpt>
      <trkpt lat="45.04418" lon="5.40218">
        <ele>1201.3</ele>
        <time>2020-07-05T09:43:25Z</time>
      </trkpt>
      <trkpt lat="45.04424" lon="5.40225">
        <ele>1200.34</ele>
        <time>2020-07-05T09:43:38Z</time>
      </trkpt>
      <trkpt lat="45.04426" lon="5.40236">
        <ele>1198.9</ele>
        <time>2020-07-05T09:43:56Z</time>
      </trkpt>
      <trkpt lat="45.04431" lon="5.40241">
        <ele>1198.9</ele>
        <time>2020-07-05T09:44:10Z</time>
      </trkpt>
      <trkpt lat="45.04436" lon="5.40247">
        <ele>1197.46</ele>
        <time>2020-07-05T09:44:24Z</time>
      </trkpt>
      <trkpt lat="45.0444" lon="5.40258">
        <ele>1196.5</ele>
        <time>2020-07-05T09:44:41Z</time>
      </trkpt>
      <trkpt lat="45.04446" lon="5.40274">
        <ele>1194.58</ele>
        <time>2020-07-05T09:44:57Z</time>
      </trkpt>
      <trkpt lat="45.04449" lon="5.40284">
        <ele>1192.17</ele>
        <time>2020-07-05T09:45:11Z</time>
      </trkpt>
      <trkpt lat="45.04453" lon="5.4029">
        <ele>1189.29</ele>
        <time>2020-07-05T09:45:22Z</time>
      </trkpt>
      <trkpt lat="45.04456" lon="5.403">
        <ele>1185.92</ele>
        <time>2020-07-05T09:45:35Z</time>
      </trkpt>
      <trkpt lat="45.04454" lon="5.40325">
        <ele>1182.56</ele>
        <time>2020-07-05T09:45:50Z</time>
      </trkpt>
      <trkpt lat="45.04453" lon="5.4034">
        <ele>1180.16</ele>
        <time>2020-07-05T09:46:04Z</time>
      </trkpt>
      <trkpt lat="45.04454" lon="5.40354">
        <ele>1177.27</ele>
        <time>2020-07-05T09:46:17Z</time>
      </trkpt>
      <trkpt lat="45.04456" lon="5.40371">
        <ele>1175.35</ele>
        <time>2020-07-05T09:46:30Z</time>
      </trkpt>
      <trkpt lat="45.04463" lon="5.40388">
        <ele>1174.87</ele>
        <time>2020-07-05T09:46:44Z</time>
      </trkpt>
      <trkpt lat="45.04467" lon="5.40401">
        <ele>1172.47</ele>
        <time>2020-07-05T09:47:00Z</time>
      </trkpt>
      <trkpt lat="45.04466" lon="5.40415">
        <ele>1169.58</ele>
        <time>2020-07-05T09:47:16Z</time>
      </trkpt>
      <trkpt lat="45.04466" lon="5.40424">
        <ele>1166.7</ele>
        <time>2020-07-05T09:47:30Z</time>
      </trkpt>
      <trkpt lat="45.04462" lon="5.40437">
        <ele>1164.77</ele>
        <time>2020-07-05T09:47:45Z</time>
      </trkpt>
      <trkpt lat="45.04461" lon="5.4045">
        <ele>1162.85</ele>
        <time>2020-07-05T09:47:58Z</time>
      </trkpt>
      <trkpt lat="45.04462" lon="5.40465">
        <ele>1160.45</ele>
        <time>2020-07-05T09:48:12Z</time>
      </trkpt>
      <trkpt lat="45.04462" lon="5.40478">
        <ele>1157.56</ele>
        <time>2020-07-05T09:48:26Z</time>
      </trkpt>
      <trkpt lat="45.04463" lon="5.40497">
        <ele>1155.64</ele>
        <time>2020-07-05T09:48:40Z</time>
      </trkpt>
      <trkpt lat="45.04463" lon="5.40511">
        <ele>1153.24</ele>
        <time>2020-07-05T09:48:55Z</time>
      </trkpt>
      <trkpt lat="45.04468" lon="5.40522">
        <ele>1152.28</ele>
        <time>2020-07-05T09:49:12Z</time>
      </trkpt>
      <trkpt lat="45.04468" lon="5.4054">
        <ele>1149.39</ele>
        <time>2020-07-05T09:49:28Z</time>
      </trkpt>
      <trkpt lat="45.04466" lon="5.40552">
        <ele>1147.47</ele>
        <time>2020-07-05T09:49:43Z</time>
      </trkpt>
      <trkpt lat="45.04459" lon="5.40572">
        <ele>1146.03</ele>
        <time>2020-07-05T09:49:58Z</time>
      </trkpt>
      <trkpt lat="45.04452" lon="5.40592">
        <ele>1145.07</ele>
        <time>2020-07-05T09:50:11Z</time>
      </trkpt>
      <trkpt lat="45.04455" lon="5.40611">
        <ele>1142.66</ele>
        <time>2020-07-05T09:50:26Z</time>
      </trkpt>
      <trkpt lat="45.04456" lon="5.40631">
        <ele>1140.26</ele>
        <time>2020-07-05T09:50:40Z</time>
      </trkpt>
      <trkpt lat="45.04455" lon="5.40652">
        <ele>1138.34</ele>
        <time>2020-07-05T09:50:55Z</time>
      </trkpt>
      <trkpt lat="45.0446" lon="5.4067">
        <ele>1135.45</ele>
        <time>2020-07-05T09:51:11Z</time>
      </trkpt>
      <trkpt lat="45.0446" lon="5.40686">
        <ele>1133.53</ele>
        <time>2020-07-05T09:51:27Z</time>
      </trkpt>
      <trkpt lat="45.04461" lon="5.40691">
        <ele>1133.53</ele>
        <time>2020-07-05T09:51:41Z</time>
      </trkpt>
      <trkpt lat="45.04462" lon="5.40698">
        <ele>1132.57</ele>
        <time>2020-07-05T09:51:56Z</time>
      </trkpt>
      <trkpt lat="45.04465" lon="5.40704">
        <ele>1132.57</ele>
        <time>2020-07-05T09:52:12Z</time>
      </trkpt>
      <trkpt lat="45.04466" lon="5.40706">
        <ele>1132.57</ele>
        <time>2020-07-05T09:52:26Z</time>
      </trkpt>
      <trkpt lat="45.04468" lon="5.40709">
        <ele>1132.09</ele>
        <time>2020-07-05T09:52:44Z</time>
      </trkpt>
      <trkpt lat="45.04471" lon="5.40709">
        <ele>1140.74</ele>
        <time>2020-07-05T10:51:31Z</time>
      </trkpt>
      <trkpt lat="45.04472" lon="5.40709">
        <ele>1140.74</ele>
        <time>2020-07-05T10:51:55Z</time>
      </trkpt>
      <trkpt lat="45.04473" lon="5.40712">
        <ele>1140.74</ele>
        <time>2020-07-05T10:52:12Z</time>
      </trkpt>
      <trkpt lat="45.04473" lon="5.40724">
        <ele>1138.82</ele>
        <time>2020-07-05T10:52:29Z</time>
      </trkpt>
      <trkpt lat="45.04475" lon="5.40739">
        <ele>1137.38</ele>
        <time>2020-07-05T10:52:45Z</time>
      </trkpt>
      <trkpt lat="45.04474" lon="5.40757">
        <ele>1136.42</ele>
        <time>2020-07-05T10:52:59Z</time>
      </trkpt>
      <trkpt lat="45.0448" lon="5.40777">
        <ele>1134.97</ele>
        <time>2020-07-05T10:53:15Z</time>
      </trkpt>
      <trkpt lat="45.04484" lon="5.40803">
        <ele>1133.05</ele>
        <time>2020-07-05T10:53:32Z</time>
      </trkpt>
      <trkpt lat="45.04483" lon="5.40816">
        <ele>1131.61</ele>
        <time>2020-07-05T10:53:47Z</time>
      </trkpt>
      <trkpt lat="45.04487" lon="5.40831">
        <ele>1130.65</ele>
        <time>2020-07-05T10:54:03Z</time>
      </trkpt>
      <trkpt lat="45.04487" lon="5.40832">
        <ele>1130.65</ele>
        <time>2020-07-05T10:54:26Z</time>
      </trkpt>
      <trkpt lat="45.04488" lon="5.40836">
        <ele>1130.65</ele>
        <time>2020-07-05T10:54:48Z</time>
      </trkpt>
      <trkpt lat="45.04488" lon="5.40838">
        <ele>1130.65</ele>
        <time>2020-07-05T10:59:14Z</time>
      </trkpt>
      <trkpt lat="45.04487" lon="5.40846">
        <ele>1130.65</ele>
        <time>2020-07-05T10:59:30Z</time>
      </trkpt>
      <trkpt lat="45.04487" lon="5.40856">
        <ele>1129.21</ele>
        <time>2020-07-05T10:59:42Z</time>
      </trkpt>
      <trkpt lat="45.04487" lon="5.40868">
        <ele>1127.76</ele>
        <time>2020-07-05T10:59:56Z</time>
      </trkpt>
      <trkpt lat="45.0449" lon="5.40882">
        <ele>1126.8</ele>
        <time>2020-07-05T11:00:13Z</time>
      </trkpt>
      <trkpt lat="45.04497" lon="5.40899">
        <ele>1126.8</ele>
        <time>2020-07-05T11:00:28Z</time>
      </trkpt>
      <trkpt lat="45.04501" lon="5.40907">
        <ele>1128.24</ele>
        <time>2020-07-05T11:00:33Z</time>
      </trkpt>
      <trkpt lat="45.04516" lon="5.40927">
        <ele>1129.21</ele>
        <time>2020-07-05T11:00:48Z</time>
      </trkpt>
      <trkpt lat="45.04523" lon="5.40942">
        <ele>1129.69</ele>
        <time>2020-07-05T11:01:03Z</time>
      </trkpt>
      <trkpt lat="45.04527" lon="5.40961">
        <ele>1131.13</ele>
        <time>2020-07-05T11:01:17Z</time>
      </trkpt>
      <trkpt lat="45.04523" lon="5.40974">
        <ele>1133.05</ele>
        <time>2020-07-05T11:01:30Z</time>
      </trkpt>
      <trkpt lat="45.04522" lon="5.40983">
        <ele>1133.53</ele>
        <time>2020-07-05T11:01:40Z</time>
      </trkpt>
      <trkpt lat="45.0452" lon="5.40998">
        <ele>1134.49</ele>
        <time>2020-07-05T11:01:52Z</time>
      </trkpt>
      <trkpt lat="45.0451" lon="5.41011">
        <ele>1135.94</ele>
        <time>2020-07-05T11:02:08Z</time>
      </trkpt>
      <trkpt lat="45.04502" lon="5.41026">
        <ele>1137.86</ele>
        <time>2020-07-05T11:02:22Z</time>
      </trkpt>
      <trkpt lat="45.04501" lon="5.41047">
        <ele>1138.34</ele>
        <time>2020-07-05T11:02:35Z</time>
      </trkpt>
      <trkpt lat="45.04505" lon="5.41077">
        <ele>1137.86</ele>
        <time>2020-07-05T11:02:51Z</time>
      </trkpt>
      <trkpt lat="45.04506" lon="5.41095">
        <ele>1136.42</ele>
        <time>2020-07-05T11:03:04Z</time>
      </trkpt>
      <trkpt lat="45.04501" lon="5.41114">
        <ele>1133.05</ele>
        <time>2020-07-05T11:03:20Z</time>
      </trkpt>
      <trkpt lat="45.04497" lon="5.41129">
        <ele>1130.65</ele>
        <time>2020-07-05T11:03:35Z</time>
      </trkpt>
      <trkpt lat="45.04484" lon="5.41151">
        <ele>1128.24</ele>
        <time>2020-07-05T11:03:51Z</time>
      </trkpt>
      <trkpt lat="45.04476" lon="5.41177">
        <ele>1125.36</ele>
        <time>2020-07-05T11:04:06Z</time>
      </trkpt>
      <trkpt lat="45.04468" lon="5.41196">
        <ele>1123.44</ele>
        <time>2020-07-05T11:04:20Z</time>
      </trkpt>
      <trkpt lat="45.04459" lon="5.4121">
        <ele>1122.96</ele>
        <time>2020-07-05T11:04:36Z</time>
      </trkpt>
      <trkpt lat="45.04462" lon="5.41227">
        <ele>1122.48</ele>
        <time>2020-07-05T11:04:52Z</time>
      </trkpt>
      <trkpt lat="45.04456" lon="5.41238">
        <ele>1122.48</ele>
        <time>2020-07-05T11:05:18Z</time>
      </trkpt>
      <trkpt lat="45.04457" lon="5.4124">
        <ele>1122.48</ele>
        <time>2020-07-05T11:05:52Z</time>
      </trkpt>
      <trkpt lat="45.04459" lon="5.41244">
        <ele>1122.48</ele>
        <time>2020-07-05T11:06:09Z</time>
      </trkpt>
      <trkpt lat="45.04468" lon="5.41253">
        <ele>1122.48</ele>
        <time>2020-07-05T11:06:28Z</time>
      </trkpt>
      <trkpt lat="45.04475" lon="5.41274">
        <ele>1121.52</ele>
        <time>2020-07-05T11:06:47Z</time>
      </trkpt>
      <trkpt lat="45.04472" lon="5.41294">
        <ele>1119.59</ele>
        <time>2020-07-05T11:07:02Z</time>
      </trkpt>
      <trkpt lat="45.04473" lon="5.41313">
        <ele>1117.19</ele>
        <time>2020-07-05T11:07:16Z</time>
      </trkpt>
      <trkpt lat="45.0448" lon="5.41343">
        <ele>1116.23</ele>
        <time>2020-07-05T11:07:33Z</time>
      </trkpt>
      <trkpt lat="45.04485" lon="5.41364">
        <ele>1116.23</ele>
        <time>2020-07-05T11:07:48Z</time>
      </trkpt>
      <trkpt lat="45.04485" lon="5.41377">
        <ele>1117.19</ele>
        <time>2020-07-05T11:07:58Z</time>
      </trkpt>
      <trkpt lat="45.04484" lon="5.41399">
        <ele>1119.11</ele>
        <time>2020-07-05T11:08:14Z</time>
      </trkpt>
      <trkpt lat="45.04481" lon="5.4143">
        <ele>1119.59</ele>
        <time>2020-07-05T11:08:31Z</time>
      </trkpt>
      <trkpt lat="45.04477" lon="5.41453">
        <ele>1120.55</ele>
        <time>2020-07-05T11:08:46Z</time>
      </trkpt>
      <trkpt lat="45.04473" lon="5.41474">
        <ele>1121.52</ele>
        <time>2020-07-05T11:09:00Z</time>
      </trkpt>
      <trkpt lat="45.04469" lon="5.4149">
        <ele>1122.96</ele>
        <time>2020-07-05T11:09:11Z</time>
      </trkpt>
      <trkpt lat="45.04464" lon="5.41507">
        <ele>1123.92</ele>
        <time>2020-07-05T11:09:25Z</time>
      </trkpt>
      <trkpt lat="45.04456" lon="5.41529">
        <ele>1123.92</ele>
        <time>2020-07-05T11:09:42Z</time>
      </trkpt>
      <trkpt lat="45.04452" lon="5.41537">
        <ele>1123.44</ele>
        <time>2020-07-05T11:09:54Z</time>
      </trkpt>
      <trkpt lat="45.04446" lon="5.4154">
        <ele>1123.44</ele>
        <time>2020-07-05T11:10:11Z</time>
      </trkpt>
      <trkpt lat="45.04443" lon="5.41538">
        <ele>1123.92</ele>
        <time>2020-07-05T11:10:32Z</time>
      </trkpt>
      <trkpt lat="45.04433" lon="5.4154">
        <ele>1123.92</ele>
        <time>2020-07-05T11:10:47Z</time>
      </trkpt>
      <trkpt lat="45.04422" lon="5.41541">
        <ele>1123.92</ele>
        <time>2020-07-05T11:11:00Z</time>
      </trkpt>
      <trkpt lat="45.04408" lon="5.41536">
        <ele>1123.92</ele>
        <time>2020-07-05T11:11:14Z</time>
      </trkpt>
      <trkpt lat="45.04391" lon="5.41533">
        <ele>1124.88</ele>
        <time>2020-07-05T11:11:28Z</time>
      </trkpt>
      <trkpt lat="45.04378" lon="5.41529">
        <ele>1126.32</ele>
        <time>2020-07-05T11:11:41Z</time>
      </trkpt>
      <trkpt lat="45.04367" lon="5.41524">
        <ele>1128.24</ele>
        <time>2020-07-05T11:11:54Z</time>
      </trkpt>
      <trkpt lat="45.04354" lon="5.41518">
        <ele>1129.69</ele>
        <time>2020-07-05T11:12:08Z</time>
      </trkpt>
      <trkpt lat="45.04342" lon="5.41511">
        <ele>1132.57</ele>
        <time>2020-07-05T11:12:22Z</time>
      </trkpt>
      <trkpt lat="45.04331" lon="5.41504">
        <ele>1135.45</ele>
        <time>2020-07-05T11:12:38Z</time>
      </trkpt>
      <trkpt lat="45.04318" lon="5.415">
        <ele>1138.34</ele>
        <time>2020-07-05T11:12:53Z</time>
      </trkpt>
      <trkpt lat="45.04305" lon="5.41496">
        <ele>1140.26</ele>
        <time>2020-07-05T11:13:08Z</time>
      </trkpt>
      <trkpt lat="45.04293" lon="5.41492">
        <ele>1141.7</ele>
        <time>2020-07-05T11:13:20Z</time>
      </trkpt>
      <trkpt lat="45.04277" lon="5.41492">
        <ele>1142.18</ele>
        <time>2020-07-05T11:13:34Z</time>
      </trkpt>
      <trkpt lat="45.04257" lon="5.41492">
        <ele>1142.66</ele>
        <time>2020-07-05T11:13:51Z</time>
      </trkpt>
      <trkpt lat="45.04237" lon="5.41494">
        <ele>1142.66</ele>
        <time>2020-07-05T11:14:05Z</time>
      </trkpt>
      <trkpt lat="45.04234" lon="5.41493">
        <ele>1142.66</ele>
        <time>2020-07-05T11:14:08Z</time>
      </trkpt>
      <trkpt lat="45.04219" lon="5.41491">
        <ele>1140.26</ele>
        <time>2020-07-05T11:14:26Z</time>
      </trkpt>
      <trkpt lat="45.04205" lon="5.41493">
        <ele>1138.82</ele>
        <time>2020-07-05T11:14:40Z</time>
      </trkpt>
      <trkpt lat="45.04188" lon="5.41497">
        <ele>1138.34</ele>
        <time>2020-07-05T11:14:55Z</time>
      </trkpt>
      <trkpt lat="45.04183" lon="5.41499">
        <ele>1138.34</ele>
        <time>2020-07-05T11:15:00Z</time>
      </trkpt>
      <trkpt lat="45.04169" lon="5.41501">
        <ele>1138.34</ele>
        <time>2020-07-05T11:15:13Z</time>
      </trkpt>
      <trkpt lat="45.04155" lon="5.41495">
        <ele>1137.86</ele>
        <time>2020-07-05T11:15:27Z</time>
      </trkpt>
      <trkpt lat="45.04145" lon="5.41493">
        <ele>1137.86</ele>
        <time>2020-07-05T11:15:39Z</time>
      </trkpt>
      <trkpt lat="45.04127" lon="5.41497">
        <ele>1137.86</ele>
        <time>2020-07-05T11:15:53Z</time>
      </trkpt>
      <trkpt lat="45.04109" lon="5.41502">
        <ele>1138.82</ele>
        <time>2020-07-05T11:16:06Z</time>
      </trkpt>
      <trkpt lat="45.04095" lon="5.41504">
        <ele>1139.78</ele>
        <time>2020-07-05T11:16:20Z</time>
      </trkpt>
      <trkpt lat="45.04088" lon="5.41505">
        <ele>1140.26</ele>
        <time>2020-07-05T11:16:26Z</time>
      </trkpt>
      <trkpt lat="45.04075" lon="5.41502">
        <ele>1142.18</ele>
        <time>2020-07-05T11:16:40Z</time>
      </trkpt>
      <trkpt lat="45.04062" lon="5.415">
        <ele>1143.14</ele>
        <time>2020-07-05T11:16:55Z</time>
      </trkpt>
      <trkpt lat="45.04046" lon="5.4149">
        <ele>1143.14</ele>
        <time>2020-07-05T11:17:11Z</time>
      </trkpt>
      <trkpt lat="45.04036" lon="5.41484">
        <ele>1143.14</ele>
        <time>2020-07-05T11:17:25Z</time>
      </trkpt>
      <trkpt lat="45.04023" lon="5.41477">
        <ele>1143.63</ele>
        <time>2020-07-05T11:17:41Z</time>
      </trkpt>
      <trkpt lat="45.04016" lon="5.41474">
        <ele>1142.18</ele>
        <time>2020-07-05T11:17:48Z</time>
      </trkpt>
      <trkpt lat="45.03998" lon="5.41464">
        <ele>1141.22</ele>
        <time>2020-07-05T11:18:01Z</time>
      </trkpt>
      <trkpt lat="45.03991" lon="5.41459">
        <ele>1140.74</ele>
        <time>2020-07-05T11:18:09Z</time>
      </trkpt>
      <trkpt lat="45.03979" lon="5.41455">
        <ele>1140.26</ele>
        <time>2020-07-05T11:18:22Z</time>
      </trkpt>
      <trkpt lat="45.03962" lon="5.41452">
        <ele>1140.26</ele>
        <time>2020-07-05T11:18:36Z</time>
      </trkpt>
      <trkpt lat="45.03947" lon="5.41448">
        <ele>1140.26</ele>
        <time>2020-07-05T11:18:50Z</time>
      </trkpt>
      <trkpt lat="45.0393" lon="5.41438">
        <ele>1140.26</ele>
        <time>2020-07-05T11:19:06Z</time>
      </trkpt>
      <trkpt lat="45.03922" lon="5.41429">
        <ele>1138.34</ele>
        <time>2020-07-05T11:19:19Z</time>
      </trkpt>
      <trkpt lat="45.03918" lon="5.41419">
        <ele>1137.38</ele>
        <time>2020-07-05T11:19:29Z</time>
      </trkpt>
      <trkpt lat="45.03909" lon="5.41406">
        <ele>1136.42</ele>
        <time>2020-07-05T11:19:41Z</time>
      </trkpt>
      <trkpt lat="45.03906" lon="5.41389">
        <ele>1136.42</ele>
        <time>2020-07-05T11:19:58Z</time>
      </trkpt>
      <trkpt lat="45.03904" lon="5.41372">
        <ele>1137.86</ele>
        <time>2020-07-05T11:20:10Z</time>
      </trkpt>
      <trkpt lat="45.03898" lon="5.41358">
        <ele>1140.26</ele>
        <time>2020-07-05T11:20:24Z</time>
      </trkpt>
      <trkpt lat="45.0389" lon="5.41345">
        <ele>1142.18</ele>
        <time>2020-07-05T11:20:38Z</time>
      </trkpt>
      <trkpt lat="45.0388" lon="5.41334">
        <ele>1144.11</ele>
        <time>2020-07-05T11:20:52Z</time>
      </trkpt>
      <trkpt lat="45.03866" lon="5.4132">
        <ele>1144.59</ele>
        <time>2020-07-05T11:21:06Z</time>
      </trkpt>
      <trkpt lat="45.03859" lon="5.41318">
        <ele>1146.51</ele>
        <time>2020-07-05T11:21:16Z</time>
      </trkpt>
      <trkpt lat="45.03844" lon="5.41312">
        <ele>1148.43</ele>
        <time>2020-07-05T11:21:30Z</time>
      </trkpt>
      <trkpt lat="45.03833" lon="5.41302">
        <ele>1150.35</ele>
        <time>2020-07-05T11:21:45Z</time>
      </trkpt>
      <trkpt lat="45.03827" lon="5.41299">
        <ele>1150.84</ele>
        <time>2020-07-05T11:21:52Z</time>
      </trkpt>
      <trkpt lat="45.03818" lon="5.41289">
        <ele>1150.84</ele>
        <time>2020-07-05T11:22:04Z</time>
      </trkpt>
      <trkpt lat="45.03807" lon="5.41272">
        <ele>1153.24</ele>
        <time>2020-07-05T11:22:19Z</time>
      </trkpt>
      <trkpt lat="45.03801" lon="5.41256">
        <ele>1153.24</ele>
        <time>2020-07-05T11:22:32Z</time>
      </trkpt>
      <trkpt lat="45.03803" lon="5.41241">
        <ele>1153.24</ele>
        <time>2020-07-05T11:22:45Z</time>
      </trkpt>
      <trkpt lat="45.03803" lon="5.41217">
        <ele>1153.72</ele>
        <time>2020-07-05T11:23:02Z</time>
      </trkpt>
      <trkpt lat="45.03797" lon="5.41198">
        <ele>1154.68</ele>
        <time>2020-07-05T11:23:15Z</time>
      </trkpt>
      <trkpt lat="45.03794" lon="5.41188">
        <ele>1154.68</ele>
        <time>2020-07-05T11:23:22Z</time>
      </trkpt>
      <trkpt lat="45.03788" lon="5.41161">
        <ele>1156.12</ele>
        <time>2020-07-05T11:23:39Z</time>
      </trkpt>
      <trkpt lat="45.03784" lon="5.41145">
        <ele>1158.05</ele>
        <time>2020-07-05T11:23:53Z</time>
      </trkpt>
      <trkpt lat="45.03784" lon="5.41128">
        <ele>1158.53</ele>
        <time>2020-07-05T11:24:07Z</time>
      </trkpt>
      <trkpt lat="45.03783" lon="5.4111">
        <ele>1158.53</ele>
        <time>2020-07-05T11:24:20Z</time>
      </trkpt>
      <trkpt lat="45.03779" lon="5.41093">
        <ele>1158.53</ele>
        <time>2020-07-05T11:24:32Z</time>
      </trkpt>
      <trkpt lat="45.03772" lon="5.41072">
        <ele>1159.01</ele>
        <time>2020-07-05T11:24:45Z</time>
      </trkpt>
      <trkpt lat="45.03765" lon="5.41058">
        <ele>1159.01</ele>
        <time>2020-07-05T11:24:52Z</time>
      </trkpt>
      <trkpt lat="45.0376" lon="5.41041">
        <ele>1159.49</ele>
        <time>2020-07-05T11:25:04Z</time>
      </trkpt>
      <trkpt lat="45.03754" lon="5.41031">
        <ele>1158.05</ele>
        <time>2020-07-05T11:25:12Z</time>
      </trkpt>
      <trkpt lat="45.03751" lon="5.41015">
        <ele>1157.08</ele>
        <time>2020-07-05T11:25:25Z</time>
      </trkpt>
      <trkpt lat="45.03748" lon="5.41003">
        <ele>1154.68</ele>
        <time>2020-07-05T11:25:37Z</time>
      </trkpt>
      <trkpt lat="45.03742" lon="5.40988">
        <ele>1152.76</ele>
        <time>2020-07-05T11:25:51Z</time>
      </trkpt>
      <trkpt lat="45.03736" lon="5.40972">
        <ele>1150.84</ele>
        <time>2020-07-05T11:26:02Z</time>
      </trkpt>
      <trkpt lat="45.03735" lon="5.40952">
        <ele>1149.39</ele>
        <time>2020-07-05T11:26:16Z</time>
      </trkpt>
      <trkpt lat="45.03733" lon="5.40947">
        <ele>1148.91</ele>
        <time>2020-07-05T11:26:38Z</time>
      </trkpt>
      <trkpt lat="45.03735" lon="5.40941">
        <ele>1148.91</ele>
        <time>2020-07-05T11:26:54Z</time>
      </trkpt>
      <trkpt lat="45.03738" lon="5.40926">
        <ele>1148.91</ele>
        <time>2020-07-05T11:27:12Z</time>
      </trkpt>
      <trkpt lat="45.03743" lon="5.40903">
        <ele>1148.91</ele>
        <time>2020-07-05T11:27:27Z</time>
      </trkpt>
      <trkpt lat="45.03743" lon="5.409">
        <ele>1149.87</ele>
        <time>2020-07-05T11:27:29Z</time>
      </trkpt>
      <trkpt lat="45.03743" lon="5.4088">
        <ele>1150.84</ele>
        <time>2020-07-05T11:27:43Z</time>
      </trkpt>
      <trkpt lat="45.0374" lon="5.40862">
        <ele>1150.84</ele>
        <time>2020-07-05T11:27:55Z</time>
      </trkpt>
      <trkpt lat="45.03734" lon="5.40838">
        <ele>1149.87</ele>
        <time>2020-07-05T11:28:09Z</time>
      </trkpt>
      <trkpt lat="45.03728" lon="5.40823">
        <ele>1148.91</ele>
        <time>2020-07-05T11:28:21Z</time>
      </trkpt>
      <trkpt lat="45.03723" lon="5.40806">
        <ele>1147.47</ele>
        <time>2020-07-05T11:28:35Z</time>
      </trkpt>
      <trkpt lat="45.03719" lon="5.40787">
        <ele>1146.03</ele>
        <time>2020-07-05T11:28:47Z</time>
      </trkpt>
      <trkpt lat="45.03711" lon="5.40772">
        <ele>1145.55</ele>
        <time>2020-07-05T11:31:59Z</time>
      </trkpt>
      <trkpt lat="45.03707" lon="5.4077">
        <ele>1146.03</ele>
        <time>2020-07-05T11:32:20Z</time>
      </trkpt>
      <trkpt lat="45.03697" lon="5.40754">
        <ele>1146.03</ele>
        <time>2020-07-05T11:32:36Z</time>
      </trkpt>
      <trkpt lat="45.03688" lon="5.40737">
        <ele>1146.99</ele>
        <time>2020-07-05T11:32:49Z</time>
      </trkpt>
      <trkpt lat="45.03679" lon="5.40722">
        <ele>1146.99</ele>
        <time>2020-07-05T11:33:04Z</time>
      </trkpt>
      <trkpt lat="45.03669" lon="5.40702">
        <ele>1147.95</ele>
        <time>2020-07-05T11:33:20Z</time>
      </trkpt>
      <trkpt lat="45.03664" lon="5.40689">
        <ele>1148.43</ele>
        <time>2020-07-05T11:33:32Z</time>
      </trkpt>
      <trkpt lat="45.0365" lon="5.40667">
        <ele>1148.91</ele>
        <time>2020-07-05T11:33:47Z</time>
      </trkpt>
      <trkpt lat="45.03647" lon="5.4065">
        <ele>1148.91</ele>
        <time>2020-07-05T11:34:02Z</time>
      </trkpt>
      <trkpt lat="45.03645" lon="5.40635">
        <ele>1149.39</ele>
        <time>2020-07-05T11:34:14Z</time>
      </trkpt>
      <trkpt lat="45.03646" lon="5.40613">
        <ele>1150.35</ele>
        <time>2020-07-05T11:34:29Z</time>
      </trkpt>
      <trkpt lat="45.0364" lon="5.40591">
        <ele>1150.84</ele>
        <time>2020-07-05T11:34:43Z</time>
      </trkpt>
      <trkpt lat="45.03631" lon="5.40563">
        <ele>1150.84</ele>
        <time>2020-07-05T11:34:58Z</time>
      </trkpt>
      <trkpt lat="45.03624" lon="5.40544">
        <ele>1148.91</ele>
        <time>2020-07-05T11:35:13Z</time>
      </trkpt>
      <trkpt lat="45.03615" lon="5.40534">
        <ele>1147.47</ele>
        <time>2020-07-05T11:35:29Z</time>
      </trkpt>
      <trkpt lat="45.03603" lon="5.40518">
        <ele>1146.03</ele>
        <time>2020-07-05T11:35:47Z</time>
      </trkpt>
      <trkpt lat="45.03589" lon="5.40495">
        <ele>1146.03</ele>
        <time>2020-07-05T11:36:01Z</time>
      </trkpt>
      <trkpt lat="45.03582" lon="5.40478">
        <ele>1146.03</ele>
        <time>2020-07-05T11:36:16Z</time>
      </trkpt>
      <trkpt lat="45.03577" lon="5.40456">
        <ele>1146.03</ele>
        <time>2020-07-05T11:36:30Z</time>
      </trkpt>
      <trkpt lat="45.03572" lon="5.40431">
        <ele>1147.95</ele>
        <time>2020-07-05T11:36:43Z</time>
      </trkpt>
      <trkpt lat="45.0357" lon="5.40413">
        <ele>1149.39</ele>
        <time>2020-07-05T11:36:57Z</time>
      </trkpt>
      <trkpt lat="45.03567" lon="5.40398">
        <ele>1149.87</ele>
        <time>2020-07-05T11:37:08Z</time>
      </trkpt>
      <trkpt lat="45.03565" lon="5.40377">
        <ele>1150.35</ele>
        <time>2020-07-05T11:37:20Z</time>
      </trkpt>
      <trkpt lat="45.03561" lon="5.40358">
        <ele>1150.35</ele>
        <time>2020-07-05T11:37:33Z</time>
      </trkpt>
      <trkpt lat="45.03557" lon="5.40337">
        <ele>1151.32</ele>
        <time>2020-07-05T11:37:48Z</time>
      </trkpt>
      <trkpt lat="45.03547" lon="5.40316">
        <ele>1151.8</ele>
        <time>2020-07-05T11:38:00Z</time>
      </trkpt>
      <trkpt lat="45.03541" lon="5.40307">
        <ele>1152.28</ele>
        <time>2020-07-05T11:38:09Z</time>
      </trkpt>
      <trkpt lat="45.03531" lon="5.40294">
        <ele>1153.24</ele>
        <time>2020-07-05T11:38:22Z</time>
      </trkpt>
      <trkpt lat="45.03518" lon="5.40286">
        <ele>1153.24</ele>
        <time>2020-07-05T11:38:36Z</time>
      </trkpt>
      <trkpt lat="45.03505" lon="5.40283">
        <ele>1153.24</ele>
        <time>2020-07-05T11:38:49Z</time>
      </trkpt>
      <trkpt lat="45.03485" lon="5.40273">
        <ele>1153.24</ele>
        <time>2020-07-05T11:39:04Z</time>
      </trkpt>
      <trkpt lat="45.03471" lon="5.40266">
        <ele>1154.2</ele>
        <time>2020-07-05T11:39:17Z</time>
      </trkpt>
      <trkpt lat="45.03456" lon="5.40262">
        <ele>1154.2</ele>
        <time>2020-07-05T11:39:30Z</time>
      </trkpt>
      <trkpt lat="45.03435" lon="5.40254">
        <ele>1154.2</ele>
        <time>2020-07-05T11:39:46Z</time>
      </trkpt>
      <trkpt lat="45.03424" lon="5.40244">
        <ele>1154.68</ele>
        <time>2020-07-05T11:39:58Z</time>
      </trkpt>
      <trkpt lat="45.03413" lon="5.40233">
        <ele>1156.12</ele>
        <time>2020-07-05T11:40:13Z</time>
      </trkpt>
      <trkpt lat="45.03409" lon="5.40226">
        <ele>1156.6</ele>
        <time>2020-07-05T11:40:18Z</time>
      </trkpt>
      <trkpt lat="45.03402" lon="5.40218">
        <ele>1158.05</ele>
        <time>2020-07-05T11:40:27Z</time>
      </trkpt>
      <trkpt lat="45.03392" lon="5.40201">
        <ele>1159.49</ele>
        <time>2020-07-05T11:40:42Z</time>
      </trkpt>
      <trkpt lat="45.03388" lon="5.40183">
        <ele>1160.93</ele>
        <time>2020-07-05T11:40:56Z</time>
      </trkpt>
      <trkpt lat="45.03385" lon="5.40167">
        <ele>1162.37</ele>
        <time>2020-07-05T11:41:08Z</time>
      </trkpt>
      <trkpt lat="45.03376" lon="5.40151">
        <ele>1163.81</ele>
        <time>2020-07-05T11:41:23Z</time>
      </trkpt>
      <trkpt lat="45.03373" lon="5.40144">
        <ele>1164.29</ele>
        <time>2020-07-05T11:41:30Z</time>
      </trkpt>
      <trkpt lat="45.03367" lon="5.40128">
        <ele>1165.26</ele>
        <time>2020-07-05T11:41:45Z</time>
      </trkpt>
      <trkpt lat="45.03365" lon="5.40122">
        <ele>1165.74</ele>
        <time>2020-07-05T11:41:48Z</time>
      </trkpt>
      <trkpt lat="45.03361" lon="5.40102">
        <ele>1166.7</ele>
        <time>2020-07-05T11:42:04Z</time>
      </trkpt>
      <trkpt lat="45.03361" lon="5.40088">
        <ele>1167.18</ele>
        <time>2020-07-05T11:42:17Z</time>
      </trkpt>
      <trkpt lat="45.03351" lon="5.4007">
        <ele>1165.26</ele>
        <time>2020-07-05T11:42:33Z</time>
      </trkpt>
      <trkpt lat="45.03339" lon="5.40055">
        <ele>1163.33</ele>
        <time>2020-07-05T11:42:47Z</time>
      </trkpt>
      <trkpt lat="45.03337" lon="5.40049">
        <ele>1163.81</ele>
        <time>2020-07-05T11:46:42Z</time>
      </trkpt>
      <trkpt lat="45.03335" lon="5.4003">
        <ele>1163.81</ele>
        <time>2020-07-05T11:46:57Z</time>
      </trkpt>
      <trkpt lat="45.0333" lon="5.40019">
        <ele>1165.26</ele>
        <time>2020-07-05T11:47:14Z</time>
      </trkpt>
      <trkpt lat="45.0332" lon="5.40014">
        <ele>1165.74</ele>
        <time>2020-07-05T11:47:28Z</time>
      </trkpt>
      <trkpt lat="45.03318" lon="5.40003">
        <ele>1165.74</ele>
        <time>2020-07-05T11:47:43Z</time>
      </trkpt>
      <trkpt lat="45.03317" lon="5.39995">
        <ele>1165.74</ele>
        <time>2020-07-05T11:47:55Z</time>
      </trkpt>
      <trkpt lat="45.03322" lon="5.39988">
        <ele>1167.18</ele>
        <time>2020-07-05T11:48:10Z</time>
      </trkpt>
      <trkpt lat="45.03323" lon="5.39988">
        <ele>1167.18</ele>
        <time>2020-07-05T11:48:28Z</time>
      </trkpt>
      <trkpt lat="45.03325" lon="5.39988">
        <ele>1167.66</ele>
        <time>2020-07-05T11:48:50Z</time>
      </trkpt>
      <trkpt lat="45.03327" lon="5.39986">
        <ele>1167.66</ele>
        <time>2020-07-05T11:49:07Z</time>
      </trkpt>
      <trkpt lat="45.03326" lon="5.39986">
        <ele>1167.66</ele>
        <time>2020-07-05T11:49:32Z</time>
      </trkpt>
      <trkpt lat="45.03327" lon="5.39986">
        <ele>1168.14</ele>
        <time>2020-07-05T11:49:51Z</time>
      </trkpt>
      <trkpt lat="45.0332" lon="5.39987">
        <ele>1168.62</ele>
        <time>2020-07-05T11:50:06Z</time>
      </trkpt>
      <trkpt lat="45.03317" lon="5.39988">
        <ele>1168.62</ele>
        <time>2020-07-05T11:50:25Z</time>
      </trkpt>
      <trkpt lat="45.0332" lon="5.39989">
        <ele>1169.1</ele>
        <time>2020-07-05T11:50:50Z</time>
      </trkpt>
      <trkpt lat="45.03321" lon="5.39988">
        <ele>1169.1</ele>
        <time>2020-07-05T11:51:08Z</time>
      </trkpt>
      <trkpt lat="45.03321" lon="5.39989">
        <ele>1169.1</ele>
        <time>2020-07-05T11:51:23Z</time>
      </trkpt>
      <trkpt lat="45.03319" lon="5.39995">
        <ele>1167.18</ele>
        <time>2020-07-05T11:51:38Z</time>
      </trkpt>
      <trkpt lat="45.03325" lon="5.39997">
        <ele>1165.26</ele>
        <time>2020-07-05T11:51:53Z</time>
      </trkpt>
      <trkpt lat="45.03333" lon="5.39994">
        <ele>1162.85</ele>
        <time>2020-07-05T11:52:07Z</time>
      </trkpt>
      <trkpt lat="45.03341" lon="5.39989">
        <ele>1160.93</ele>
        <time>2020-07-05T11:52:20Z</time>
      </trkpt>
      <trkpt lat="45.03347" lon="5.39987">
        <ele>1157.56</ele>
        <time>2020-07-05T11:52:31Z</time>
      </trkpt>
      <trkpt lat="45.03355" lon="5.39983">
        <ele>1155.16</ele>
        <time>2020-07-05T11:52:45Z</time>
      </trkpt>
      <trkpt lat="45.03358" lon="5.39983">
        <ele>1154.2</ele>
        <time>2020-07-05T11:52:50Z</time>
      </trkpt>
      <trkpt lat="45.03363" lon="5.39984">
        <ele>1152.28</ele>
        <time>2020-07-05T11:53:03Z</time>
      </trkpt>
      <trkpt lat="45.03368" lon="5.39985">
        <ele>1150.84</ele>
        <time>2020-07-05T11:53:15Z</time>
      </trkpt>
      <trkpt lat="45.03377" lon="5.39981">
        <ele>1148.91</ele>
        <time>2020-07-05T11:53:28Z</time>
      </trkpt>
      <trkpt lat="45.03387" lon="5.39964">
        <ele>1145.55</ele>
        <time>2020-07-05T11:53:43Z</time>
      </trkpt>
      <trkpt lat="45.03391" lon="5.39956">
        <ele>1145.55</ele>
        <time>2020-07-05T11:53:49Z</time>
      </trkpt>
      <trkpt lat="45.03404" lon="5.39945">
        <ele>1143.14</ele>
        <time>2020-07-05T11:54:04Z</time>
      </trkpt>
      <trkpt lat="45.03414" lon="5.39934">
        <ele>1139.78</ele>
        <time>2020-07-05T11:54:17Z</time>
      </trkpt>
      <trkpt lat="45.03424" lon="5.39924">
        <ele>1136.42</ele>
        <time>2020-07-05T11:54:29Z</time>
      </trkpt>
      <trkpt lat="45.03435" lon="5.39917">
        <ele>1133.53</ele>
        <time>2020-07-05T11:54:44Z</time>
      </trkpt>
      <trkpt lat="45.03446" lon="5.39908">
        <ele>1131.61</ele>
        <time>2020-07-05T11:54:58Z</time>
      </trkpt>
      <trkpt lat="45.03441" lon="5.39908">
        <ele>1130.17</ele>
        <time>2020-07-05T11:55:12Z</time>
      </trkpt>
      <trkpt lat="45.03438" lon="5.39909">
        <ele>1129.21</ele>
        <time>2020-07-05T11:55:16Z</time>
      </trkpt>
      <trkpt lat="45.03423" lon="5.39914">
        <ele>1126.32</ele>
        <time>2020-07-05T11:55:33Z</time>
      </trkpt>
      <trkpt lat="45.03414" lon="5.39915">
        <ele>1124.4</ele>
        <time>2020-07-05T11:55:43Z</time>
      </trkpt>
      <trkpt lat="45.03401" lon="5.39919">
        <ele>1120.55</ele>
        <time>2020-07-05T11:55:58Z</time>
      </trkpt>
      <trkpt lat="45.03391" lon="5.39922">
        <ele>1117.67</ele>
        <time>2020-07-05T11:56:13Z</time>
      </trkpt>
      <trkpt lat="45.03379" lon="5.39923">
        <ele>1114.31</ele>
        <time>2020-07-05T11:56:25Z</time>
      </trkpt>
      <trkpt lat="45.03367" lon="5.39927">
        <ele>1111.9</ele>
        <time>2020-07-05T11:56:42Z</time>
      </trkpt>
      <trkpt lat="45.03358" lon="5.39929">
        <ele>1109.5</ele>
        <time>2020-07-05T11:56:55Z</time>
      </trkpt>
      <trkpt lat="45.03345" lon="5.39932">
        <ele>1106.61</ele>
        <time>2020-07-05T11:57:09Z</time>
      </trkpt>
      <trkpt lat="45.03336" lon="5.39931">
        <ele>1103.73</ele>
        <time>2020-07-05T11:57:23Z</time>
      </trkpt>
      <trkpt lat="45.03343" lon="5.39923">
        <ele>1101.81</ele>
        <time>2020-07-05T11:57:37Z</time>
      </trkpt>
      <trkpt lat="45.03353" lon="5.39909">
        <ele>1098.92</ele>
        <time>2020-07-05T11:57:53Z</time>
      </trkpt>
      <trkpt lat="45.03364" lon="5.39896">
        <ele>1096.04</ele>
        <time>2020-07-05T11:58:08Z</time>
      </trkpt>
      <trkpt lat="45.03375" lon="5.39888">
        <ele>1094.12</ele>
        <time>2020-07-05T11:58:24Z</time>
      </trkpt>
      <trkpt lat="45.0339" lon="5.3988">
        <ele>1093.16</ele>
        <time>2020-07-05T11:58:39Z</time>
      </trkpt>
      <trkpt lat="45.03404" lon="5.39872">
        <ele>1091.71</ele>
        <time>2020-07-05T11:58:53Z</time>
      </trkpt>
      <trkpt lat="45.03416" lon="5.39866">
        <ele>1090.75</ele>
        <time>2020-07-05T11:59:04Z</time>
      </trkpt>
      <trkpt lat="45.03427" lon="5.39858">
        <ele>1088.83</ele>
        <time>2020-07-05T11:59:19Z</time>
      </trkpt>
      <trkpt lat="45.03427" lon="5.39854">
        <ele>1088.35</ele>
        <time>2020-07-05T11:59:44Z</time>
      </trkpt>
      <trkpt lat="45.03435" lon="5.39851">
        <ele>1087.39</ele>
        <time>2020-07-05T11:59:58Z</time>
      </trkpt>
      <trkpt lat="45.03443" lon="5.39844">
        <ele>1085.47</ele>
        <time>2020-07-05T12:00:13Z</time>
      </trkpt>
      <trkpt lat="45.03453" lon="5.3984">
        <ele>1084.5</ele>
        <time>2020-07-05T12:00:28Z</time>
      </trkpt>
      <trkpt lat="45.03459" lon="5.39842">
        <ele>1083.06</ele>
        <time>2020-07-05T12:00:41Z</time>
      </trkpt>
      <trkpt lat="45.03469" lon="5.39844">
        <ele>1080.66</ele>
        <time>2020-07-05T12:00:55Z</time>
      </trkpt>
      <trkpt lat="45.03475" lon="5.39843">
        <ele>1077.78</ele>
        <time>2020-07-05T12:01:12Z</time>
      </trkpt>
      <trkpt lat="45.03485" lon="5.39846">
        <ele>1075.85</ele>
        <time>2020-07-05T12:01:25Z</time>
      </trkpt>
      <trkpt lat="45.03486" lon="5.39846">
        <ele>1075.37</ele>
        <time>2020-07-05T12:01:40Z</time>
      </trkpt>
      <trkpt lat="45.03497" lon="5.39844">
        <ele>1073.93</ele>
        <time>2020-07-05T12:01:58Z</time>
      </trkpt>
      <trkpt lat="45.03504" lon="5.39844">
        <ele>1073.45</ele>
        <time>2020-07-05T12:02:11Z</time>
      </trkpt>
      <trkpt lat="45.03518" lon="5.39842">
        <ele>1071.53</ele>
        <time>2020-07-05T12:02:25Z</time>
      </trkpt>
      <trkpt lat="45.03528" lon="5.39841">
        <ele>1071.05</ele>
        <time>2020-07-05T12:02:41Z</time>
      </trkpt>
      <trkpt lat="45.0353" lon="5.39839">
        <ele>1071.05</ele>
        <time>2020-07-05T12:02:54Z</time>
      </trkpt>
      <trkpt lat="45.03539" lon="5.39835">
        <ele>1068.64</ele>
        <time>2020-07-05T12:03:08Z</time>
      </trkpt>
      <trkpt lat="45.03546" lon="5.39828">
        <ele>1066.24</ele>
        <time>2020-07-05T12:03:22Z</time>
      </trkpt>
      <trkpt lat="45.03551" lon="5.39824">
        <ele>1064.8</ele>
        <time>2020-07-05T12:03:36Z</time>
      </trkpt>
      <trkpt lat="45.03559" lon="5.39818">
        <ele>1062.87</ele>
        <time>2020-07-05T12:03:52Z</time>
      </trkpt>
      <trkpt lat="45.03566" lon="5.39815">
        <ele>1061.43</ele>
        <time>2020-07-05T12:04:05Z</time>
      </trkpt>
      <trkpt lat="45.03574" lon="5.3981">
        <ele>1059.99</ele>
        <time>2020-07-05T12:04:18Z</time>
      </trkpt>
      <trkpt lat="45.03584" lon="5.39803">
        <ele>1059.51</ele>
        <time>2020-07-05T12:04:30Z</time>
      </trkpt>
      <trkpt lat="45.03592" lon="5.39801">
        <ele>1059.51</ele>
        <time>2020-07-05T12:04:42Z</time>
      </trkpt>
      <trkpt lat="45.03599" lon="5.39799">
        <ele>1058.55</ele>
        <time>2020-07-05T12:04:57Z</time>
      </trkpt>
      <trkpt lat="45.03609" lon="5.39791">
        <ele>1057.11</ele>
        <time>2020-07-05T12:05:11Z</time>
      </trkpt>
      <trkpt lat="45.0362" lon="5.39779">
        <ele>1055.18</ele>
        <time>2020-07-05T12:05:25Z</time>
      </trkpt>
      <trkpt lat="45.03629" lon="5.3978">
        <ele>1053.74</ele>
        <time>2020-07-05T12:05:40Z</time>
      </trkpt>
      <trkpt lat="45.0364" lon="5.39775">
        <ele>1050.38</ele>
        <time>2020-07-05T12:05:55Z</time>
      </trkpt>
      <trkpt lat="45.03649" lon="5.3977">
        <ele>1048.45</ele>
        <time>2020-07-05T12:06:08Z</time>
      </trkpt>
      <trkpt lat="45.0366" lon="5.39769">
        <ele>1048.45</ele>
        <time>2020-07-05T12:06:21Z</time>
      </trkpt>
      <trkpt lat="45.03672" lon="5.39758">
        <ele>1046.05</ele>
        <time>2020-07-05T12:06:35Z</time>
      </trkpt>
      <trkpt lat="45.03682" lon="5.39751">
        <ele>1043.65</ele>
        <time>2020-07-05T12:06:52Z</time>
      </trkpt>
      <trkpt lat="45.03688" lon="5.39744">
        <ele>1040.76</ele>
        <time>2020-07-05T12:07:07Z</time>
      </trkpt>
      <trkpt lat="45.03685" lon="5.3974">
        <ele>1038.84</ele>
        <time>2020-07-05T12:07:21Z</time>
      </trkpt>
      <trkpt lat="45.03674" lon="5.39739">
        <ele>1036.44</ele>
        <time>2020-07-05T12:07:38Z</time>
      </trkpt>
      <trkpt lat="45.03679" lon="5.39732">
        <ele>1033.55</ele>
        <time>2020-07-05T12:07:52Z</time>
      </trkpt>
      <trkpt lat="45.03686" lon="5.39724">
        <ele>1030.19</ele>
        <time>2020-07-05T12:08:07Z</time>
      </trkpt>
      <trkpt lat="45.03693" lon="5.39714">
        <ele>1027.79</ele>
        <time>2020-07-05T12:08:20Z</time>
      </trkpt>
      <trkpt lat="45.03701" lon="5.39702">
        <ele>1025.86</ele>
        <time>2020-07-05T12:08:35Z</time>
      </trkpt>
      <trkpt lat="45.03708" lon="5.39696">
        <ele>1022.98</ele>
        <time>2020-07-05T12:08:50Z</time>
      </trkpt>
      <trkpt lat="45.03714" lon="5.39688">
        <ele>1020.1</ele>
        <time>2020-07-05T12:09:03Z</time>
      </trkpt>
      <trkpt lat="45.03712" lon="5.39684">
        <ele>1017.21</ele>
        <time>2020-07-05T12:09:16Z</time>
      </trkpt>
      <trkpt lat="45.03701" lon="5.39687">
        <ele>1013.85</ele>
        <time>2020-07-05T12:09:32Z</time>
      </trkpt>
      <trkpt lat="45.03713" lon="5.39674">
        <ele>1011.44</ele>
        <time>2020-07-05T12:09:51Z</time>
      </trkpt>
      <trkpt lat="45.03723" lon="5.39662">
        <ele>1009.04</ele>
        <time>2020-07-05T12:10:07Z</time>
      </trkpt>
      <trkpt lat="45.0373" lon="5.39652">
        <ele>1006.16</ele>
        <time>2020-07-05T12:10:22Z</time>
      </trkpt>
      <trkpt lat="45.03734" lon="5.39649">
        <ele>1005.2</ele>
        <time>2020-07-05T12:10:37Z</time>
      </trkpt>
      <trkpt lat="45.03735" lon="5.39653">
        <ele>1004.72</ele>
        <time>2020-07-05T12:11:03Z</time>
      </trkpt>
      <trkpt lat="45.03742" lon="5.3964">
        <ele>1001.83</ele>
        <time>2020-07-05T12:11:21Z</time>
      </trkpt>
      <trkpt lat="45.03749" lon="5.39631">
        <ele>998.47</ele>
        <time>2020-07-05T12:11:35Z</time>
      </trkpt>
      <trkpt lat="45.03758" lon="5.39624">
        <ele>996.54</ele>
        <time>2020-07-05T12:11:49Z</time>
      </trkpt>
      <trkpt lat="45.03771" lon="5.3961">
        <ele>993.18</ele>
        <time>2020-07-05T12:12:04Z</time>
      </trkpt>
      <trkpt lat="45.03781" lon="5.39597">
        <ele>990.3</ele>
        <time>2020-07-05T12:12:19Z</time>
      </trkpt>
      <trkpt lat="45.0379" lon="5.39586">
        <ele>987.89</ele>
        <time>2020-07-05T12:12:34Z</time>
      </trkpt>
      <trkpt lat="45.03798" lon="5.39575">
        <ele>985.01</ele>
        <time>2020-07-05T12:12:47Z</time>
      </trkpt>
      <trkpt lat="45.03807" lon="5.39562">
        <ele>981.64</ele>
        <time>2020-07-05T12:13:01Z</time>
      </trkpt>
      <trkpt lat="45.03813" lon="5.39553">
        <ele>978.76</ele>
        <time>2020-07-05T12:13:14Z</time>
      </trkpt>
      <trkpt lat="45.03818" lon="5.39546">
        <ele>975.39</ele>
        <time>2020-07-05T12:13:26Z</time>
      </trkpt>
      <trkpt lat="45.03826" lon="5.39538">
        <ele>972.03</ele>
        <time>2020-07-05T12:13:39Z</time>
      </trkpt>
      <trkpt lat="45.03836" lon="5.39528">
        <ele>969.15</ele>
        <time>2020-07-05T12:13:53Z</time>
      </trkpt>
      <trkpt lat="45.03844" lon="5.39519">
        <ele>965.78</ele>
        <time>2020-07-05T12:14:06Z</time>
      </trkpt>
      <trkpt lat="45.03852" lon="5.3951">
        <ele>962.42</ele>
        <time>2020-07-05T12:14:20Z</time>
      </trkpt>
      <trkpt lat="45.03864" lon="5.39494">
        <ele>959.53</ele>
        <time>2020-07-05T12:14:33Z</time>
      </trkpt>
      <trkpt lat="45.0387" lon="5.39487">
        <ele>956.65</ele>
        <time>2020-07-05T12:14:46Z</time>
      </trkpt>
      <trkpt lat="45.03882" lon="5.39476">
        <ele>953.28</ele>
        <time>2020-07-05T12:14:59Z</time>
      </trkpt>
      <trkpt lat="45.03892" lon="5.39457">
        <ele>949.92</ele>
        <time>2020-07-05T12:15:13Z</time>
      </trkpt>
      <trkpt lat="45.03899" lon="5.39448">
        <ele>946.56</ele>
        <time>2020-07-05T12:15:25Z</time>
      </trkpt>
      <trkpt lat="45.03905" lon="5.39433">
        <ele>943.19</ele>
        <time>2020-07-05T12:15:36Z</time>
      </trkpt>
      <trkpt lat="45.03914" lon="5.39414">
        <ele>940.31</ele>
        <time>2020-07-05T12:15:48Z</time>
      </trkpt>
      <trkpt lat="45.03917" lon="5.39401">
        <ele>936.94</ele>
        <time>2020-07-05T12:15:59Z</time>
      </trkpt>
      <trkpt lat="45.03925" lon="5.39391">
        <ele>933.58</ele>
        <time>2020-07-05T12:16:13Z</time>
      </trkpt>
      <trkpt lat="45.03931" lon="5.39379">
        <ele>930.21</ele>
        <time>2020-07-05T12:16:26Z</time>
      </trkpt>
      <trkpt lat="45.03937" lon="5.3936">
        <ele>926.85</ele>
        <time>2020-07-05T12:16:39Z</time>
      </trkpt>
      <trkpt lat="45.03942" lon="5.39344">
        <ele>923.48</ele>
        <time>2020-07-05T12:16:52Z</time>
      </trkpt>
      <trkpt lat="45.03953" lon="5.39333">
        <ele>920.12</ele>
        <time>2020-07-05T12:17:06Z</time>
      </trkpt>
      <trkpt lat="45.03963" lon="5.3932">
        <ele>917.24</ele>
        <time>2020-07-05T12:17:20Z</time>
      </trkpt>
      <trkpt lat="45.03968" lon="5.39308">
        <ele>914.35</ele>
        <time>2020-07-05T12:17:34Z</time>
      </trkpt>
      <trkpt lat="45.03975" lon="5.39292">
        <ele>911.95</ele>
        <time>2020-07-05T12:17:48Z</time>
      </trkpt>
      <trkpt lat="45.0398" lon="5.3928">
        <ele>910.03</ele>
        <time>2020-07-05T12:18:00Z</time>
      </trkpt>
      <trkpt lat="45.03988" lon="5.3927">
        <ele>907.62</ele>
        <time>2020-07-05T12:18:15Z</time>
      </trkpt>
      <trkpt lat="45.0399" lon="5.39259">
        <ele>905.22</ele>
        <time>2020-07-05T12:18:27Z</time>
      </trkpt>
      <trkpt lat="45.03993" lon="5.39248">
        <ele>901.85</ele>
        <time>2020-07-05T12:18:42Z</time>
      </trkpt>
      <trkpt lat="45.03996" lon="5.39237">
        <ele>898.97</ele>
        <time>2020-07-05T12:18:56Z</time>
      </trkpt>
      <trkpt lat="45.04009" lon="5.39226">
        <ele>895.12</ele>
        <time>2020-07-05T12:19:14Z</time>
      </trkpt>
      <trkpt lat="45.04018" lon="5.39217">
        <ele>893.68</ele>
        <time>2020-07-05T12:19:27Z</time>
      </trkpt>
      <trkpt lat="45.04029" lon="5.3921">
        <ele>892.24</ele>
        <time>2020-07-05T12:19:42Z</time>
      </trkpt>
      <trkpt lat="45.04038" lon="5.39206">
        <ele>889.84</ele>
        <time>2020-07-05T12:19:56Z</time>
      </trkpt>
      <trkpt lat="45.04043" lon="5.392">
        <ele>886.95</ele>
        <time>2020-07-05T12:20:09Z</time>
      </trkpt>
      <trkpt lat="45.04047" lon="5.39189">
        <ele>883.59</ele>
        <time>2020-07-05T12:20:24Z</time>
      </trkpt>
      <trkpt lat="45.04051" lon="5.39187">
        <ele>882.63</ele>
        <time>2020-07-05T12:20:31Z</time>
      </trkpt>
      <trkpt lat="45.0406" lon="5.39183">
        <ele>881.19</ele>
        <time>2020-07-05T12:20:44Z</time>
      </trkpt>
      <trkpt lat="45.04069" lon="5.39174">
        <ele>881.19</ele>
        <time>2020-07-05T12:20:57Z</time>
      </trkpt>
      <trkpt lat="45.04081" lon="5.39165">
        <ele>881.19</ele>
        <time>2020-07-05T12:21:11Z</time>
      </trkpt>
      <trkpt lat="45.04092" lon="5.39162">
        <ele>883.11</ele>
        <time>2020-07-05T12:21:26Z</time>
      </trkpt>
      <trkpt lat="45.04099" lon="5.39161">
        <ele>884.55</ele>
        <time>2020-07-05T12:21:40Z</time>
      </trkpt>
      <trkpt lat="45.04109" lon="5.39161">
        <ele>885.51</ele>
        <time>2020-07-05T12:21:53Z</time>
      </trkpt>
      <trkpt lat="45.04121" lon="5.39154">
        <ele>883.11</ele>
        <time>2020-07-05T12:22:11Z</time>
      </trkpt>
      <trkpt lat="45.04122" lon="5.39155">
        <ele>882.15</ele>
        <time>2020-07-05T12:22:22Z</time>
      </trkpt>
      <trkpt lat="45.04123" lon="5.39153">
        <ele>880.22</ele>
        <time>2020-07-05T12:22:34Z</time>
      </trkpt>
      <trkpt lat="45.04125" lon="5.39156">
        <ele>877.82</ele>
        <time>2020-07-05T12:22:46Z</time>
      </trkpt>
      <trkpt lat="45.04133" lon="5.39157">
        <ele>876.38</ele>
        <time>2020-07-05T12:22:55Z</time>
      </trkpt>
      <trkpt lat="45.04142" lon="5.39156">
        <ele>874.94</ele>
        <time>2020-07-05T12:23:06Z</time>
      </trkpt>
      <trkpt lat="45.04165" lon="5.39171">
        <ele>873.98</ele>
        <time>2020-07-05T12:23:22Z</time>
      </trkpt>
      <trkpt lat="45.04174" lon="5.39169">
        <ele>872.53</ele>
        <time>2020-07-05T12:23:31Z</time>
      </trkpt>
      <trkpt lat="45.04189" lon="5.39163">
        <ele>871.09</ele>
        <time>2020-07-05T12:23:44Z</time>
      </trkpt>
      <trkpt lat="45.04203" lon="5.39154">
        <ele>870.13</ele>
        <time>2020-07-05T12:24:00Z</time>
      </trkpt>
      <trkpt lat="45.04209" lon="5.39149">
        <ele>870.13</ele>
        <time>2020-07-05T12:24:13Z</time>
      </trkpt>
      <trkpt lat="45.04215" lon="5.39141">
        <ele>868.69</ele>
        <time>2020-07-05T12:24:28Z</time>
      </trkpt>
      <trkpt lat="45.04225" lon="5.39138">
        <ele>867.73</ele>
        <time>2020-07-05T12:24:41Z</time>
      </trkpt>
      <trkpt lat="45.04237" lon="5.39135">
        <ele>867.25</ele>
        <time>2020-07-05T12:24:54Z</time>
      </trkpt>
      <trkpt lat="45.04245" lon="5.39121">
        <ele>867.25</ele>
        <time>2020-07-05T12:25:07Z</time>
      </trkpt>
      <trkpt lat="45.04251" lon="5.39108">
        <ele>864.84</ele>
        <time>2020-07-05T12:25:19Z</time>
      </trkpt>
      <trkpt lat="45.04255" lon="5.39102">
        <ele>864.36</ele>
        <time>2020-07-05T12:25:24Z</time>
      </trkpt>
      <trkpt lat="45.04256" lon="5.39101">
        <ele>864.36</ele>
        <time>2020-07-05T12:25:25Z</time>
      </trkpt>
      <trkpt lat="45.04261" lon="5.39093">
        <ele>863.88</ele>
        <time>2020-07-05T12:25:31Z</time>
      </trkpt>
      <trkpt lat="45.04263" lon="5.39091">
        <ele>863.88</ele>
        <time>2020-07-05T12:25:33Z</time>
      </trkpt>
      <trkpt lat="45.04275" lon="5.39078">
        <ele>863.4</ele>
        <time>2020-07-05T12:25:49Z</time>
      </trkpt>
      <trkpt lat="45.04286" lon="5.39065">
        <ele>864.36</ele>
        <time>2020-07-05T12:26:03Z</time>
      </trkpt>
      <trkpt lat="45.04294" lon="5.39049">
        <ele>864.36</ele>
        <time>2020-07-05T12:26:13Z</time>
      </trkpt>
      <trkpt lat="45.04294" lon="5.39045">
        <ele>862.92</ele>
        <time>2020-07-05T12:26:15Z</time>
      </trkpt>
      <trkpt lat="45.04302" lon="5.39041">
        <ele>860.52</ele>
        <time>2020-07-05T12:26:25Z</time>
      </trkpt>
      <trkpt lat="45.04308" lon="5.39033">
        <ele>859.56</ele>
        <time>2020-07-05T12:26:32Z</time>
      </trkpt>
      <trkpt lat="45.04319" lon="5.39014">
        <ele>858.59</ele>
        <time>2020-07-05T12:26:46Z</time>
      </trkpt>
      <trkpt lat="45.04326" lon="5.39004">
        <ele>857.15</ele>
        <time>2020-07-05T12:26:59Z</time>
      </trkpt>
      <trkpt lat="45.04331" lon="5.38994">
        <ele>854.75</ele>
        <time>2020-07-05T12:27:08Z</time>
      </trkpt>
      <trkpt lat="45.0434" lon="5.38977">
        <ele>852.35</ele>
        <time>2020-07-05T12:27:23Z</time>
      </trkpt>
      <trkpt lat="45.04346" lon="5.38966">
        <ele>850.9</ele>
        <time>2020-07-05T12:27:35Z</time>
      </trkpt>
      <trkpt lat="45.04353" lon="5.38952">
        <ele>848.02</ele>
        <time>2020-07-05T12:27:48Z</time>
      </trkpt>
      <trkpt lat="45.04364" lon="5.38936">
        <ele>846.58</ele>
        <time>2020-07-05T12:28:02Z</time>
      </trkpt>
      <trkpt lat="45.04376" lon="5.38914">
        <ele>846.58</ele>
        <time>2020-07-05T12:28:16Z</time>
      </trkpt>
      <trkpt lat="45.04382" lon="5.38905">
        <ele>846.1</ele>
        <time>2020-07-05T12:28:24Z</time>
      </trkpt>
      <trkpt lat="45.04391" lon="5.38887">
        <ele>843.21</ele>
        <time>2020-07-05T12:28:39Z</time>
      </trkpt>
      <trkpt lat="45.04397" lon="5.38875">
        <ele>841.77</ele>
        <time>2020-07-05T12:28:51Z</time>
      </trkpt>
      <trkpt lat="45.04402" lon="5.38862">
        <ele>839.37</ele>
        <time>2020-07-05T12:29:05Z</time>
      </trkpt>
      <trkpt lat="45.04403" lon="5.38854">
        <ele>836.96</ele>
        <time>2020-07-05T12:29:16Z</time>
      </trkpt>
      <trkpt lat="45.04404" lon="5.38846">
        <ele>834.56</ele>
        <time>2020-07-05T12:29:29Z</time>
      </trkpt>
      <trkpt lat="45.04407" lon="5.38836">
        <ele>832.64</ele>
        <time>2020-07-05T12:29:40Z</time>
      </trkpt>
      <trkpt lat="45.04408" lon="5.38825">
        <ele>829.76</ele>
        <time>2020-07-05T12:29:53Z</time>
      </trkpt>
      <trkpt lat="45.04407" lon="5.38808">
        <ele>825.91</ele>
        <time>2020-07-05T12:30:07Z</time>
      </trkpt>
      <trkpt lat="45.04411" lon="5.38791">
        <ele>822.55</ele>
        <time>2020-07-05T12:30:21Z</time>
      </trkpt>
      <trkpt lat="45.04418" lon="5.38778">
        <ele>819.66</ele>
        <time>2020-07-05T12:30:34Z</time>
      </trkpt>
      <trkpt lat="45.04423" lon="5.38769">
        <ele>817.74</ele>
        <time>2020-07-05T12:30:42Z</time>
      </trkpt>
      <trkpt lat="45.04436" lon="5.38765">
        <ele>814.37</ele>
        <time>2020-07-05T12:30:58Z</time>
      </trkpt>
      <trkpt lat="45.04443" lon="5.38758">
        <ele>812.45</ele>
        <time>2020-07-05T12:31:09Z</time>
      </trkpt>
      <trkpt lat="45.04456" lon="5.38741">
        <ele>809.57</ele>
        <time>2020-07-05T12:31:24Z</time>
      </trkpt>
      <trkpt lat="45.04462" lon="5.38726">
        <ele>806.68</ele>
        <time>2020-07-05T12:31:38Z</time>
      </trkpt>
      <trkpt lat="45.04465" lon="5.3871">
        <ele>803.32</ele>
        <time>2020-07-05T12:31:54Z</time>
      </trkpt>
      <trkpt lat="45.04467" lon="5.38688">
        <ele>801.4</ele>
        <time>2020-07-05T12:32:09Z</time>
      </trkpt>
      <trkpt lat="45.04468" lon="5.38665">
        <ele>798.51</ele>
        <time>2020-07-05T12:32:23Z</time>
      </trkpt>
      <trkpt lat="45.04472" lon="5.38641">
        <ele>796.11</ele>
        <time>2020-07-05T12:32:39Z</time>
      </trkpt>
      <trkpt lat="45.04471" lon="5.38621">
        <ele>792.74</ele>
        <time>2020-07-05T12:32:54Z</time>
      </trkpt>
      <trkpt lat="45.04475" lon="5.38598">
        <ele>789.86</ele>
        <time>2020-07-05T12:33:09Z</time>
      </trkpt>
      <trkpt lat="45.04482" lon="5.38578">
        <ele>788.42</ele>
        <time>2020-07-05T12:33:24Z</time>
      </trkpt>
      <trkpt lat="45.04482" lon="5.38576">
        <ele>788.42</ele>
        <time>2020-07-05T12:33:25Z</time>
      </trkpt>
      <trkpt lat="45.0449" lon="5.38556">
        <ele>785.05</ele>
        <time>2020-07-05T12:33:40Z</time>
      </trkpt>
      <trkpt lat="45.04497" lon="5.38535">
        <ele>782.17</ele>
        <time>2020-07-05T12:33:55Z</time>
      </trkpt>
      <trkpt lat="45.04497" lon="5.38533">
        <ele>781.69</ele>
        <time>2020-07-05T12:33:56Z</time>
      </trkpt>
      <trkpt lat="45.04508" lon="5.3852">
        <ele>778.81</ele>
        <time>2020-07-05T12:34:10Z</time>
      </trkpt>
      <trkpt lat="45.0451" lon="5.38517">
        <ele>778.32</ele>
        <time>2020-07-05T12:34:13Z</time>
      </trkpt>
      <trkpt lat="45.04521" lon="5.38499">
        <ele>774.48</ele>
        <time>2020-07-05T12:34:28Z</time>
      </trkpt>
      <trkpt lat="45.04525" lon="5.38492">
        <ele>773.52</ele>
        <time>2020-07-05T12:34:34Z</time>
      </trkpt>
      <trkpt lat="45.04529" lon="5.38484">
        <ele>772.08</ele>
        <time>2020-07-05T12:34:41Z</time>
      </trkpt>
      <trkpt lat="45.04536" lon="5.38469">
        <ele>769.67</ele>
        <time>2020-07-05T12:34:53Z</time>
      </trkpt>
      <trkpt lat="45.04546" lon="5.38455">
        <ele>766.31</ele>
        <time>2020-07-05T12:35:07Z</time>
      </trkpt>
      <trkpt lat="45.04554" lon="5.38446">
        <ele>763.42</ele>
        <time>2020-07-05T12:35:19Z</time>
      </trkpt>
      <trkpt lat="45.04557" lon="5.38441">
        <ele>762.94</ele>
        <time>2020-07-05T12:35:23Z</time>
      </trkpt>
      <trkpt lat="45.04566" lon="5.38417">
        <ele>759.1</ele>
        <time>2020-07-05T12:35:39Z</time>
      </trkpt>
      <trkpt lat="45.04571" lon="5.38396">
        <ele>757.18</ele>
        <time>2020-07-05T12:35:53Z</time>
      </trkpt>
      <trkpt lat="45.04574" lon="5.38385">
        <ele>755.25</ele>
        <time>2020-07-05T12:36:01Z</time>
      </trkpt>
      <trkpt lat="45.04581" lon="5.38365">
        <ele>752.37</ele>
        <time>2020-07-05T12:36:16Z</time>
      </trkpt>
      <trkpt lat="45.04587" lon="5.3835">
        <ele>750.45</ele>
        <time>2020-07-05T12:36:27Z</time>
      </trkpt>
      <trkpt lat="45.04597" lon="5.38331">
        <ele>748.52</ele>
        <time>2020-07-05T12:36:41Z</time>
      </trkpt>
      <trkpt lat="45.04603" lon="5.38322">
        <ele>746.6</ele>
        <time>2020-07-05T12:36:48Z</time>
      </trkpt>
      <trkpt lat="45.04612" lon="5.38297">
        <ele>745.16</ele>
        <time>2020-07-05T12:37:05Z</time>
      </trkpt>
      <trkpt lat="45.0462" lon="5.38281">
        <ele>743.24</ele>
        <time>2020-07-05T12:37:17Z</time>
      </trkpt>
      <trkpt lat="45.04633" lon="5.38267">
        <ele>738.91</ele>
        <time>2020-07-05T12:38:25Z</time>
      </trkpt>
      <trkpt lat="45.04643" lon="5.38266">
        <ele>737.47</ele>
        <time>2020-07-05T12:38:40Z</time>
      </trkpt>
      <trkpt lat="45.04652" lon="5.38261">
        <ele>735.07</ele>
        <time>2020-07-05T12:38:49Z</time>
      </trkpt>
      <trkpt lat="45.04655" lon="5.38258">
        <ele>734.58</ele>
        <time>2020-07-05T12:38:52Z</time>
      </trkpt>
      <trkpt lat="45.04658" lon="5.38257">
        <ele>734.1</ele>
        <time>2020-07-05T12:38:55Z</time>
      </trkpt>
      <trkpt lat="45.04675" lon="5.38241">
        <ele>732.18</ele>
        <time>2020-07-05T12:39:11Z</time>
      </trkpt>
      <trkpt lat="45.04687" lon="5.38226">
        <ele>729.3</ele>
        <time>2020-07-05T12:39:26Z</time>
      </trkpt>
      <trkpt lat="45.04692" lon="5.38211">
        <ele>726.89</ele>
        <time>2020-07-05T12:39:38Z</time>
      </trkpt>
      <trkpt lat="45.04698" lon="5.3819">
        <ele>722.57</ele>
        <time>2020-07-05T12:39:51Z</time>
      </trkpt>
      <trkpt lat="45.04706" lon="5.38172">
        <ele>719.68</ele>
        <time>2020-07-05T12:40:05Z</time>
      </trkpt>
      <trkpt lat="45.04711" lon="5.38154">
        <ele>716.32</ele>
        <time>2020-07-05T12:40:17Z</time>
      </trkpt>
      <trkpt lat="45.04715" lon="5.3814">
        <ele>712.95</ele>
        <time>2020-07-05T12:40:27Z</time>
      </trkpt>
      <trkpt lat="45.0472" lon="5.38127">
        <ele>709.59</ele>
        <time>2020-07-05T12:40:38Z</time>
      </trkpt>
      <trkpt lat="45.04722" lon="5.38111">
        <ele>706.71</ele>
        <time>2020-07-05T12:40:50Z</time>
      </trkpt>
      <trkpt lat="45.04726" lon="5.38104">
        <ele>704.78</ele>
        <time>2020-07-05T12:41:03Z</time>
      </trkpt>
      <trkpt lat="45.04726" lon="5.38094">
        <ele>703.82</ele>
        <time>2020-07-05T12:42:41Z</time>
      </trkpt>
      <trkpt lat="45.04729" lon="5.38087">
        <ele>701.9</ele>
        <time>2020-07-05T12:42:48Z</time>
      </trkpt>
      <trkpt lat="45.04733" lon="5.38074">
        <ele>699.5</ele>
        <time>2020-07-05T12:42:59Z</time>
      </trkpt>
      <trkpt lat="45.04734" lon="5.38072">
        <ele>699.5</ele>
        <time>2020-07-05T12:43:01Z</time>
      </trkpt>
      <trkpt lat="45.0474" lon="5.38061">
        <ele>696.13</ele>
        <time>2020-07-05T12:43:12Z</time>
      </trkpt>
      <trkpt lat="45.04742" lon="5.38055">
        <ele>695.17</ele>
        <time>2020-07-05T12:43:17Z</time>
      </trkpt>
      <trkpt lat="45.0475" lon="5.38042">
        <ele>691.81</ele>
        <time>2020-07-05T12:43:30Z</time>
      </trkpt>
      <trkpt lat="45.04755" lon="5.38028">
        <ele>688.92</ele>
        <time>2020-07-05T12:43:43Z</time>
      </trkpt>
      <trkpt lat="45.04759" lon="5.38017">
        <ele>687</ele>
        <time>2020-07-05T12:43:52Z</time>
      </trkpt>
      <trkpt lat="45.04767" lon="5.38001">
        <ele>683.15</ele>
        <time>2020-07-05T12:44:05Z</time>
      </trkpt>
      <trkpt lat="45.04771" lon="5.37992">
        <ele>681.71</ele>
        <time>2020-07-05T12:44:12Z</time>
      </trkpt>
      <trkpt lat="45.04775" lon="5.37984">
        <ele>680.27</ele>
        <time>2020-07-05T12:44:19Z</time>
      </trkpt>
      <trkpt lat="45.04777" lon="5.37978">
        <ele>679.31</ele>
        <time>2020-07-05T12:44:23Z</time>
      </trkpt>
      <trkpt lat="45.04781" lon="5.37969">
        <ele>677.39</ele>
        <time>2020-07-05T12:44:30Z</time>
      </trkpt>
      <trkpt lat="45.04791" lon="5.37949">
        <ele>674.02</ele>
        <time>2020-07-05T12:44:44Z</time>
      </trkpt>
      <trkpt lat="45.04798" lon="5.37934">
        <ele>671.14</ele>
        <time>2020-07-05T12:44:56Z</time>
      </trkpt>
      <trkpt lat="45.04805" lon="5.37921">
        <ele>668.73</ele>
        <time>2020-07-05T12:45:08Z</time>
      </trkpt>
      <trkpt lat="45.04812" lon="5.37904">
        <ele>664.89</ele>
        <time>2020-07-05T12:45:22Z</time>
      </trkpt>
      <trkpt lat="45.0482" lon="5.37888">
        <ele>662.49</ele>
        <time>2020-07-05T12:45:34Z</time>
      </trkpt>
      <trkpt lat="45.04829" lon="5.37872">
        <ele>659.12</ele>
        <time>2020-07-05T12:45:48Z</time>
      </trkpt>
      <trkpt lat="45.04835" lon="5.37861">
        <ele>657.2</ele>
        <time>2020-07-05T12:45:58Z</time>
      </trkpt>
      <trkpt lat="45.04844" lon="5.37845">
        <ele>654.8</ele>
        <time>2020-07-05T12:46:13Z</time>
      </trkpt>
      <trkpt lat="45.04852" lon="5.37823">
        <ele>651.91</ele>
        <time>2020-07-05T12:46:28Z</time>
      </trkpt>
      <trkpt lat="45.04863" lon="5.37797">
        <ele>648.55</ele>
        <time>2020-07-05T12:46:44Z</time>
      </trkpt>
      <trkpt lat="45.04873" lon="5.37765">
        <ele>646.14</ele>
        <time>2020-07-05T12:47:02Z</time>
      </trkpt>
      <trkpt lat="45.04876" lon="5.37737">
        <ele>642.78</ele>
        <time>2020-07-05T12:47:19Z</time>
      </trkpt>
      <trkpt lat="45.04875" lon="5.37715">
        <ele>640.38</ele>
        <time>2020-07-05T12:47:34Z</time>
      </trkpt>
      <trkpt lat="45.04876" lon="5.37689">
        <ele>637.97</ele>
        <time>2020-07-05T12:47:49Z</time>
      </trkpt>
      <trkpt lat="45.04877" lon="5.37663">
        <ele>636.05</ele>
        <time>2020-07-05T12:48:03Z</time>
      </trkpt>
      <trkpt lat="45.04877" lon="5.3766">
        <ele>635.09</ele>
        <time>2020-07-05T12:48:05Z</time>
      </trkpt>
      <trkpt lat="45.04879" lon="5.37654">
        <ele>634.61</ele>
        <time>2020-07-05T12:48:09Z</time>
      </trkpt>
      <trkpt lat="45.04881" lon="5.37642">
        <ele>633.65</ele>
        <time>2020-07-05T12:48:16Z</time>
      </trkpt>
      <trkpt lat="45.04888" lon="5.37613">
        <ele>630.28</ele>
        <time>2020-07-05T12:48:34Z</time>
      </trkpt>
      <trkpt lat="45.04896" lon="5.37589">
        <ele>628.36</ele>
        <time>2020-07-05T12:48:50Z</time>
      </trkpt>
      <trkpt lat="45.04904" lon="5.37576">
        <ele>626.44</ele>
        <time>2020-07-05T12:49:02Z</time>
      </trkpt>
      <trkpt lat="45.04905" lon="5.37571">
        <ele>625.96</ele>
        <time>2020-07-05T12:49:05Z</time>
      </trkpt>
      <trkpt lat="45.04906" lon="5.37567">
        <ele>625.96</ele>
        <time>2020-07-05T12:49:07Z</time>
      </trkpt>
      <trkpt lat="45.04918" lon="5.37549">
        <ele>623.07</ele>
        <time>2020-07-05T12:49:23Z</time>
      </trkpt>
      <trkpt lat="45.04931" lon="5.3754">
        <ele>620.67</ele>
        <time>2020-07-05T12:49:38Z</time>
      </trkpt>
      <trkpt lat="45.04946" lon="5.37532">
        <ele>618.75</ele>
        <time>2020-07-05T12:49:53Z</time>
      </trkpt>
      <trkpt lat="45.04961" lon="5.37519">
        <ele>616.82</ele>
        <time>2020-07-05T12:50:09Z</time>
      </trkpt>
      <trkpt lat="45.04971" lon="5.37505">
        <ele>615.38</ele>
        <time>2020-07-05T12:50:21Z</time>
      </trkpt>
      <trkpt lat="45.04982" lon="5.37487">
        <ele>613.94</ele>
        <time>2020-07-05T12:50:35Z</time>
      </trkpt>
      <trkpt lat="45.04994" lon="5.37468">
        <ele>611.54</ele>
        <time>2020-07-05T12:50:51Z</time>
      </trkpt>
      <trkpt lat="45.05011" lon="5.37452">
        <ele>609.13</ele>
        <time>2020-07-05T12:51:09Z</time>
      </trkpt>
      <trkpt lat="45.05028" lon="5.37447">
        <ele>607.69</ele>
        <time>2020-07-05T12:51:25Z</time>
      </trkpt>
      <trkpt lat="45.05031" lon="5.37448">
        <ele>607.21</ele>
        <time>2020-07-05T12:51:28Z</time>
      </trkpt>
      <trkpt lat="45.05044" lon="5.3746">
        <ele>604.81</ele>
        <time>2020-07-05T12:51:44Z</time>
      </trkpt>
      <trkpt lat="45.05052" lon="5.37474">
        <ele>603.85</ele>
        <time>2020-07-05T12:51:56Z</time>
      </trkpt>
      <trkpt lat="45.05062" lon="5.37483">
        <ele>602.4</ele>
        <time>2020-07-05T12:52:10Z</time>
      </trkpt>
      <trkpt lat="45.05083" lon="5.37485">
        <ele>601.44</ele>
        <time>2020-07-05T12:52:24Z</time>
      </trkpt>
      <trkpt lat="45.05098" lon="5.37489">
        <ele>601.44</ele>
        <time>2020-07-05T12:52:37Z</time>
      </trkpt>
      <trkpt lat="45.05112" lon="5.37486">
        <ele>600</ele>
        <time>2020-07-05T12:52:53Z</time>
      </trkpt>
      <trkpt lat="45.05113" lon="5.37486">
        <ele>599.52</ele>
        <time>2020-07-05T12:52:54Z</time>
      </trkpt>
      <trkpt lat="45.05138" lon="5.37474">
        <ele>597.12</ele>
        <time>2020-07-05T12:53:10Z</time>
      </trkpt>
      <trkpt lat="45.05154" lon="5.37462">
        <ele>595.67</ele>
        <time>2020-07-05T12:53:22Z</time>
      </trkpt>
      <trkpt lat="45.05168" lon="5.37449">
        <ele>594.23</ele>
        <time>2020-07-05T12:53:36Z</time>
      </trkpt>
      <trkpt lat="45.05174" lon="5.37444">
        <ele>593.75</ele>
        <time>2020-07-05T12:53:42Z</time>
      </trkpt>
      <trkpt lat="45.05176" lon="5.37442">
        <ele>593.27</ele>
        <time>2020-07-05T12:53:44Z</time>
      </trkpt>
      <trkpt lat="45.05188" lon="5.37421">
        <ele>592.31</ele>
        <time>2020-07-05T12:53:59Z</time>
      </trkpt>
      <trkpt lat="45.05198" lon="5.37399">
        <ele>591.35</ele>
        <time>2020-07-05T12:54:13Z</time>
      </trkpt>
      <trkpt lat="45.05203" lon="5.37382">
        <ele>589.91</ele>
        <time>2020-07-05T12:54:24Z</time>
      </trkpt>
      <trkpt lat="45.05205" lon="5.37375">
        <ele>589.91</ele>
        <time>2020-07-05T12:54:28Z</time>
      </trkpt>
      <trkpt lat="45.05209" lon="5.37358">
        <ele>587.98</ele>
        <time>2020-07-05T12:54:38Z</time>
      </trkpt>
      <trkpt lat="45.05218" lon="5.37326">
        <ele>587.02</ele>
        <time>2020-07-05T12:54:57Z</time>
      </trkpt>
      <trkpt lat="45.05223" lon="5.37297">
        <ele>586.06</ele>
        <time>2020-07-05T12:55:12Z</time>
      </trkpt>
      <trkpt lat="45.05229" lon="5.37267">
        <ele>585.1</ele>
        <time>2020-07-05T12:55:29Z</time>
      </trkpt>
      <trkpt lat="45.0524" lon="5.37244">
        <ele>582.22</ele>
        <time>2020-07-05T12:55:45Z</time>
      </trkpt>
      <trkpt lat="45.0525" lon="5.37222">
        <ele>580.29</ele>
        <time>2020-07-05T12:56:00Z</time>
      </trkpt>
      <trkpt lat="45.05252" lon="5.37219">
        <ele>580.29</ele>
        <time>2020-07-05T12:56:02Z</time>
      </trkpt>
      <trkpt lat="45.05258" lon="5.37206">
        <ele>579.33</ele>
        <time>2020-07-05T12:56:11Z</time>
      </trkpt>
      <trkpt lat="45.05271" lon="5.37178">
        <ele>577.41</ele>
        <time>2020-07-05T12:56:29Z</time>
      </trkpt>
      <trkpt lat="45.05279" lon="5.37155">
        <ele>575.01</ele>
        <time>2020-07-05T12:56:44Z</time>
      </trkpt>
      <trkpt lat="45.05283" lon="5.3714">
        <ele>573.56</ele>
        <time>2020-07-05T12:56:57Z</time>
      </trkpt>
      <trkpt lat="45.05279" lon="5.37128">
        <ele>570.68</ele>
        <time>2020-07-05T12:57:11Z</time>
      </trkpt>
      <trkpt lat="45.05271" lon="5.37122">
        <ele>567.8</ele>
        <time>2020-07-05T12:57:26Z</time>
      </trkpt>
      <trkpt lat="45.05267" lon="5.37113">
        <ele>566.35</ele>
        <time>2020-07-05T12:57:33Z</time>
      </trkpt>
      <trkpt lat="45.0527" lon="5.37097">
        <ele>564.91</ele>
        <time>2020-07-05T12:57:46Z</time>
      </trkpt>
      <trkpt lat="45.05269" lon="5.37073">
        <ele>563.47</ele>
        <time>2020-07-05T12:58:01Z</time>
      </trkpt>
      <trkpt lat="45.05266" lon="5.37046">
        <ele>561.07</ele>
        <time>2020-07-05T12:58:17Z</time>
      </trkpt>
      <trkpt lat="45.05262" lon="5.37018">
        <ele>560.11</ele>
        <time>2020-07-05T12:58:33Z</time>
      </trkpt>
      <trkpt lat="45.05258" lon="5.36993">
        <ele>558.66</ele>
        <time>2020-07-05T12:58:47Z</time>
      </trkpt>
      <trkpt lat="45.05256" lon="5.36984">
        <ele>558.18</ele>
        <time>2020-07-05T12:58:52Z</time>
      </trkpt>
      <trkpt lat="45.05255" lon="5.36977">
        <ele>557.22</ele>
        <time>2020-07-05T12:58:56Z</time>
      </trkpt>
      <trkpt lat="45.05255" lon="5.36949">
        <ele>556.26</ele>
        <time>2020-07-05T12:59:12Z</time>
      </trkpt>
      <trkpt lat="45.0526" lon="5.36923">
        <ele>554.82</ele>
        <time>2020-07-05T12:59:27Z</time>
      </trkpt>
      <trkpt lat="45.0527" lon="5.36893">
        <ele>552.41</ele>
        <time>2020-07-05T12:59:46Z</time>
      </trkpt>
      <trkpt lat="45.05282" lon="5.36871">
        <ele>550.97</ele>
        <time>2020-07-05T13:00:01Z</time>
      </trkpt>
      <trkpt lat="45.05297" lon="5.36846">
        <ele>549.05</ele>
        <time>2020-07-05T13:00:20Z</time>
      </trkpt>
      <trkpt lat="45.05311" lon="5.36827">
        <ele>546.17</ele>
        <time>2020-07-05T13:00:36Z</time>
      </trkpt>
      <trkpt lat="45.05321" lon="5.36803">
        <ele>544.72</ele>
        <time>2020-07-05T13:00:53Z</time>
      </trkpt>
      <trkpt lat="45.0532" lon="5.36788">
        <ele>543.76</ele>
        <time>2020-07-05T13:01:06Z</time>
      </trkpt>
      <trkpt lat="45.05318" lon="5.36786">
        <ele>543.28</ele>
        <time>2020-07-05T13:01:08Z</time>
      </trkpt>
      <trkpt lat="45.05318" lon="5.36768">
        <ele>542.8</ele>
        <time>2020-07-05T13:01:21Z</time>
      </trkpt>
      <trkpt lat="45.05314" lon="5.36761">
        <ele>542.32</ele>
        <time>2020-07-05T13:01:37Z</time>
      </trkpt>
    </trkseg>
  </trk>
</gpx>